
Distance (Route):
Temperature : -6.9°C
Humidity : 72.1%
Pressure : 0hPa| Receiver | Frames | First received | Last received |
|---|---|---|---|
| OM5KV | 207 | 2026-08-30 18:07:55 | 2026-08-30 18:24:46 |
| LZ4TU-5 | 118 | 2026-08-30 17:34:12 | 2026-08-30 18:55:06 |
| 9A1FER-3 | 41 | 2026-08-30 18:11:44 | 2026-08-30 18:42:06 |
| OE3JTB-15 | 16 | 2026-08-30 18:12:40 | 2026-08-30 18:38:00 |
| GYPAP8-17 | 1 | 2026-08-30 18:18:22 | 2026-08-30 18:18:22 |
| Receiver | Date | Latitude | Longitude | Direction | Speed | Altitude | Climb | Temperature | Humidity | Pressure | Voltage | Killtimer | Uptime | BKT | XDATA |
|---|---|---|---|---|---|---|---|---|---|---|---|---|---|---|---|
| LZ4TU-5 | 2026-08-30 18:55:06 | 44.64995 | 20.95075 | 110° | 35km/h | 5355m | -16.9m/s | -6.9°C | 72.1% | 0hPa | 5.4V | 00:00:00 | 00:00:00 | 00:00:00 | |
| LZ4TU-5 | 2026-08-30 18:55:00 | 44.65009 | 20.95007 | 104° | 35km/h | 5456m | -17.4m/s | -7.5°C | 66.2% | 0hPa | 5.4V | 00:00:00 | 00:00:00 | 00:00:00 | |
| LZ4TU-5 | 2026-08-30 18:53:53 | 44.65223 | 20.94202 | 132° | 37km/h | 6639m | -17.9m/s | -14.0°C | 9.2% | 0hPa | 5.4V | 00:00:00 | 00:00:00 | 00:00:00 | |
| LZ4TU-5 | 2026-08-30 18:53:48 | 44.65252 | 20.94153 | 132° | 37km/h | 6721m | -18.0m/s | -14.6°C | 0% | 0hPa | 5.4V | 00:00:00 | 00:00:00 | 00:00:00 | |
| LZ4TU-5 | 2026-08-30 18:52:38 | 44.65768 | 20.93310 | 125° | 46km/h | 8024m | -18.9m/s | -23.7°C | 10.9% | 0hPa | 5.4V | 00:00:00 | 00:00:00 | 00:00:00 | |
| LZ4TU-5 | 2026-08-30 18:52:33 | 44.65805 | 20.93240 | 127° | 51km/h | 8120m | -18.8m/s | -24.4°C | 11.1% | 0hPa | 5.4V | 00:00:00 | 00:00:00 | 00:00:00 | |
| LZ4TU-5 | 2026-08-30 18:51:24 | 44.66344 | 20.92123 | 127° | 55km/h | 9452m | -20.1m/s | -35.3°C | 19.8% | 0hPa | 5.4V | 00:00:00 | 00:00:00 | 00:00:00 | |
| LZ4TU-5 | 2026-08-30 18:51:19 | 44.66389 | 20.92043 | 129° | 60km/h | 9554m | -19.9m/s | -36.1°C | 20.0% | 0hPa | 5.4V | 00:00:00 | 00:00:00 | 00:00:00 | |
| LZ4TU-5 | 2026-08-30 18:50:13 | 44.66833 | 20.90921 | 122° | 53km/h | 10926m | -22.2m/s | -47.2°C | 34.4% | 0hPa | 5.4V | 00:00:00 | 00:00:00 | 00:00:00 | |
| LZ4TU-5 | 2026-08-30 18:50:08 | 44.66870 | 20.90838 | 120° | 57km/h | 11040m | -22.4m/s | -48.2°C | 34.5% | 0hPa | 5.4V | 00:00:00 | 00:00:00 | 00:00:00 | |
| LZ4TU-5 | 2026-08-30 18:48:25 | 44.67518 | 20.88711 | 114° | 40km/h | 13543m | -26.9m/s | -58.7°C | 7.9% | 0hPa | 5.4V | 00:00:00 | 00:00:00 | 00:00:00 | |
| LZ4TU-5 | 2026-08-30 18:48:20 | 44.67535 | 20.88642 | 100° | 44km/h | 13678m | -27.2m/s | -59.0°C | 7.0% | 0hPa | 5.4V | 00:00:00 | 00:00:00 | 00:00:00 | |
| LZ4TU-5 | 2026-08-30 18:47:08 | 44.67733 | 20.87370 | 116° | 38km/h | 15820m | -32.0m/s | -58.8°C | 0.7% | 0hPa | 5.4V | 00:00:00 | 00:00:00 | 00:00:00 | |
| LZ4TU-5 | 2026-08-30 18:47:04 | 44.67748 | 20.87320 | 117° | 38km/h | 15945m | -32.2m/s | -58.7°C | 0.7% | 0hPa | 5.4V | 00:00:00 | 00:00:00 | 00:00:00 | |
| LZ4TU-5 | 2026-08-30 18:46:56 | 44.67788 | 20.87241 | 124° | 26km/h | 16203m | -33.0m/s | -57.3°C | 0.5% | 0hPa | 5.4V | 00:00:00 | 00:00:00 | 00:00:00 | |
| LZ4TU-5 | 2026-08-30 18:46:47 | 44.67786 | 20.87172 | 50° | 20km/h | 16508m | -33.8m/s | -56.5°C | 0.0% | 0hPa | 5.4V | 00:00:00 | 00:00:00 | 00:00:00 | |
| LZ4TU-5 | 2026-08-30 18:46:30 | 44.67711 | 20.87025 | 78° | 35km/h | 17093m | -35.5m/s | -57.5°C | 0.1% | 0hPa | 5.4V | 00:00:00 | 00:00:00 | 00:00:00 | |
| LZ4TU-5 | 2026-08-30 18:46:14 | 44.67738 | 20.86862 | 135° | 26km/h | 17666m | -37.0m/s | -57.2°C | 0.0% | 0hPa | 5.4V | 00:00:00 | 00:00:00 | 00:00:00 | |
| LZ4TU-5 | 2026-08-30 18:45:52 | 44.67763 | 20.86786 | 68° | 4km/h | 18511m | -39.8m/s | -56.3°C | 0.0% | 0hPa | 5.4V | 00:00:00 | 00:00:00 | 00:00:00 | |
| LZ4TU-5 | 2026-08-30 18:45:43 | 44.67757 | 20.86756 | 106° | 11km/h | 18869m | -40.7m/s | -57.5°C | 0.0% | 0hPa | 5.4V | 00:00:00 | 00:00:00 | 00:00:00 | |
| LZ4TU-5 | 2026-08-30 18:44:26 | 44.67727 | 20.86797 | 281° | 7km/h | 22375m | -50.8m/s | -53.9°C | 0.0% | 0hPa | 5.4V | 00:00:00 | 00:00:00 | 00:00:00 | |
| LZ4TU-5 | 2026-08-30 18:44:22 | 44.67727 | 20.86808 | 295° | 4km/h | 22584m | -51.3m/s | -53.3°C | 0.0% | 0hPa | 5.4V | 00:00:00 | 00:00:00 | 00:00:00 | |
| LZ4TU-5 | 2026-08-30 18:44:16 | 44.67724 | 20.86813 | 208° | 4km/h | 22897m | -52.2m/s | -53.0°C | 0.0% | 0hPa | 5.4V | 00:00:00 | 00:00:00 | 00:00:00 | |
| LZ4TU-5 | 2026-08-30 18:44:11 | 44.67725 | 20.86818 | 245° | 5km/h | 23165m | -55.0m/s | -52.0°C | 0.0% | 0hPa | 5.4V | 00:00:00 | 00:00:00 | 00:00:00 | |
| LZ4TU-5 | 2026-08-30 18:42:57 | 44.67713 | 20.86940 | 83° | 5km/h | 27890m | -77.6m/s | -45.6°C | 1.0% | 0hPa | 5.4V | 00:00:00 | 00:00:00 | 00:00:00 | |
| LZ4TU-5 | 2026-08-30 18:42:52 | 44.67708 | 20.86928 | 44° | 9km/h | 28281m | -80.1m/s | -44.5°C | 0.8% | 0hPa | 5.4V | 00:00:00 | 00:00:00 | 00:00:00 | |
| 9A1FER-3 | 2026-08-30 18:42:06 | 44.67703 | 20.86874 | 205° | 22km/h | 31022m | 4.8m/s | -42.6°C | 0% | 0hPa | 5.4V | 00:00:00 | 00:00:00 | 00:00:00 | |
| 9A1FER-3 | 2026-08-30 18:41:49 | 44.67749 | 20.86851 | 69° | 13km/h | 30894m | 6.3m/s | -43.2°C | 0% | 0hPa | 5.4V | 00:00:00 | 00:00:00 | 00:00:00 | |
| 9A1FER-3 | 2026-08-30 18:41:34 | 44.67755 | 20.86816 | 6° | 15km/h | 30783m | 5.8m/s | -43.7°C | 0% | 0hPa | 5.4V | 00:00:00 | 00:00:00 | 00:00:00 | |
| LZ4TU-5 | 2026-08-30 18:41:30 | 44.67772 | 20.86789 | 127° | 38km/h | 30749m | 8.8m/s | -44.2°C | 0.8% | 0hPa | 5.4V | 00:00:00 | 00:00:00 | 00:00:00 | |
| LZ4TU-5 | 2026-08-30 18:41:25 | 44.67776 | 20.86744 | 84° | 9km/h | 30711m | 7.9m/s | -44.1°C | 0.8% | 0hPa | 5.4V | 00:00:00 | 00:00:00 | 00:00:00 | |
| 9A1FER-3 | 2026-08-30 18:41:17 | 44.67779 | 20.86689 | 92° | 18km/h | 30648m | 6.7m/s | -43.4°C | 0% | 0hPa | 5.4V | 00:00:00 | 00:00:00 | 00:00:00 | |
| 9A1FER-3 | 2026-08-30 18:40:25 | 44.67669 | 20.86562 | 275° | 13km/h | 30255m | 8.0m/s | -44.2°C | 0% | 0hPa | 5.4V | 00:00:00 | 00:00:00 | 00:00:00 | |
| LZ4TU-5 | 2026-08-30 18:40:10 | 44.67644 | 20.86619 | 334° | 15km/h | 30144m | 8.2m/s | -44.5°C | 0.7% | 0hPa | 5.4V | 00:00:00 | 00:00:00 | 00:00:00 | |
| 9A1FER-3 | 2026-08-30 18:40:07 | 44.67642 | 20.86630 | 251° | 24km/h | 30122m | 8.7m/s | -44.1°C | 0% | 0hPa | 5.4V | 00:00:00 | 00:00:00 | 00:00:00 | |
| LZ4TU-5 | 2026-08-30 18:40:05 | 44.67643 | 20.86640 | 274° | 15km/h | 30106m | 7.0m/s | -44.6°C | 0.8% | 0hPa | 5.4V | 00:00:00 | 00:00:00 | 00:00:00 | |
| LZ4TU-5 | 2026-08-30 18:38:50 | 44.68038 | 20.86798 | 144° | 35km/h | 29582m | 7.7m/s | -44.3°C | 0.4% | 0hPa | 5.4V | 00:00:00 | 00:00:00 | 00:00:00 | |
| LZ4TU-5 | 2026-08-30 18:38:46 | 44.68064 | 20.86783 | 203° | 29km/h | 29555m | 8.8m/s | -44.6°C | 0.4% | 0hPa | 5.4V | 00:00:00 | 00:00:00 | 00:00:00 | |
| 9A1FER-3 | 2026-08-30 18:38:39 | 44.68102 | 20.86775 | 138° | 18km/h | 29507m | 7.1m/s | -44.7°C | 0% | 0hPa | 5.4V | 00:00:00 | 00:00:00 | 00:00:00 | |
| 9A1FER-3 | 2026-08-30 18:38:03 | 44.68223 | 20.86660 | 79° | 15km/h | 29270m | 5.4m/s | -45.5°C | 0% | 0hPa | 5.4V | 00:00:00 | 00:00:00 | 00:00:00 | |
| OE3JTB-15 | 2026-08-30 18:38:00 | 44.68230 | 20.86637 | 142° | 18km/h | 29249m | 8.5m/s | -45.5°C | 0% | 0hPa | 5.4V | 00:00:00 | 00:00:00 | 00:00:00 | |
| OE3JTB-15 | 2026-08-30 18:37:31 | 44.68232 | 20.86530 | 342° | 18km/h | 29043m | 6.3m/s | -45.8°C | 0% | 0hPa | 5.4V | 00:00:00 | 00:00:00 | 00:00:00 | |
| LZ4TU-5 | 2026-08-30 18:37:23 | 44.68201 | 20.86475 | 86° | 16km/h | 28985m | 8.6m/s | -46.3°C | 0.6% | 0hPa | 5.4V | 00:00:00 | 00:00:00 | 00:00:00 | |
| LZ4TU-5 | 2026-08-30 18:37:18 | 44.68195 | 20.86474 | 359° | 22km/h | 28951m | 4.3m/s | -46.5°C | 0.6% | 0hPa | 5.4V | 00:00:00 | 00:00:00 | 00:00:00 | |
| OE3JTB-15 | 2026-08-30 18:36:57 | 44.68112 | 20.86420 | 91° | 9km/h | 28799m | 6.3m/s | -46.4°C | 0% | 0hPa | 5.4V | 00:00:00 | 00:00:00 | 00:00:00 | |
| LZ4TU-5 | 2026-08-30 18:36:04 | 44.68051 | 20.86265 | 106° | 11km/h | 28419m | 9.3m/s | -47.0°C | 0.6% | 0hPa | 5.4V | 00:00:00 | 00:00:00 | 00:00:00 | |
| LZ4TU-5 | 2026-08-30 18:35:59 | 44.68042 | 20.86241 | 5° | 24km/h | 28384m | 5.9m/s | -47.2°C | 0.6% | 0hPa | 5.4V | 00:00:00 | 00:00:00 | 00:00:00 | |
| 9A1FER-3 | 2026-08-30 18:35:07 | 44.67966 | 20.86165 | 203° | 13km/h | 28022m | 7.9m/s | -47.0°C | 0% | 0hPa | 5.4V | 00:00:00 | 00:00:00 | 00:00:00 | |
| LZ4TU-5 | 2026-08-30 18:34:43 | 44.67909 | 20.86176 | 322° | 16km/h | 27864m | 4.1m/s | -48.3°C | 0.7% | 0hPa | 5.5V | 00:00:00 | 00:00:00 | 00:00:00 | |
| LZ4TU-5 | 2026-08-30 18:34:39 | 44.67890 | 20.86165 | 8° | 20km/h | 27830m | 5.4m/s | -48.4°C | 0% | 0hPa | 5.5V | 00:00:00 | 00:00:00 | 00:00:00 | |
| LZ4TU-5 | 2026-08-30 18:33:25 | 44.67997 | 20.86368 | 296° | 11km/h | 27338m | 6.5m/s | -48.7°C | 0.7% | 0hPa | 5.5V | 00:00:00 | 00:00:00 | 00:00:00 | |
| OE3JTB-15 | 2026-08-30 18:33:20 | 44.68005 | 20.86370 | 153° | 15km/h | 27308m | 5.0m/s | -48.3°C | 0% | 0hPa | 5.5V | 00:00:00 | 00:00:00 | 00:00:00 | |
| OE3JTB-15 | 2026-08-30 18:32:51 | 44.68037 | 20.86347 | 283° | 11km/h | 27109m | 8.5m/s | -48.1°C | 0% | 0hPa | 5.5V | 00:00:00 | 00:00:00 | 00:00:00 | |
| 9A1FER-3 | 2026-08-30 18:32:26 | 44.68029 | 20.86331 | 250° | 13km/h | 26939m | 6.7m/s | -48.4°C | 0% | 0hPa | 5.5V | 00:00:00 | 00:00:00 | 00:00:00 | |
| OE3JTB-15 | 2026-08-30 18:32:21 | 44.68010 | 20.86338 | 47° | 20km/h | 26902m | 7.3m/s | -48.7°C | 0% | 0hPa | 5.5V | 00:00:00 | 00:00:00 | 00:00:00 | |
| 9A1FER-3 | 2026-08-30 18:32:10 | 44.67996 | 20.86341 | 357° | 24km/h | 26829m | 7.1m/s | -49.3°C | 0% | 0hPa | 5.5V | 00:00:00 | 00:00:00 | 00:00:00 | |
| LZ4TU-5 | 2026-08-30 18:32:05 | 44.67982 | 20.86347 | 309° | 22km/h | 26797m | 6.4m/s | -50.0°C | 0.7% | 0hPa | 5.5V | 00:00:00 | 00:00:00 | 00:00:00 | |
| LZ4TU-5 | 2026-08-30 18:32:00 | 44.67979 | 20.86376 | 287° | 20km/h | 26763m | 8.5m/s | -50.1°C | 0.7% | 0hPa | 5.5V | 00:00:00 | 00:00:00 | 00:00:00 | |
| OE3JTB-15 | 2026-08-30 18:31:41 | 44.67956 | 20.86544 | 279° | 33km/h | 26636m | 5.8m/s | -49.6°C | 0% | 0hPa | 5.5V | 00:00:00 | 00:00:00 | 00:00:00 | |
| 9A1FER-3 | 2026-08-30 18:31:00 | 44.68021 | 20.86876 | 221° | 13km/h | 26363m | 6.6m/s | -49.3°C | 0% | 0hPa | 5.5V | 00:00:00 | 00:00:00 | 00:00:00 | |
| OE3JTB-15 | 2026-08-30 18:30:58 | 44.68022 | 20.86882 | 283° | 15km/h | 26349m | 6.7m/s | -49.3°C | 0% | 0hPa | 5.5V | 00:00:00 | 00:00:00 | 00:00:00 | |
| LZ4TU-5 | 2026-08-30 18:30:48 | 44.68027 | 20.86910 | 11° | 5km/h | 26281m | 9.2m/s | -50.3°C | 0.4% | 0hPa | 5.5V | 00:00:00 | 00:00:00 | 00:00:00 | |
| LZ4TU-5 | 2026-08-30 18:30:43 | 44.68019 | 20.86915 | 172° | 11km/h | 26250m | 9.5m/s | -50.9°C | 0.5% | 0hPa | 5.5V | 00:00:00 | 00:00:00 | 00:00:00 | |
| LZ4TU-5 | 2026-08-30 18:29:28 | 44.68037 | 20.86921 | 137° | 13km/h | 25743m | 8.2m/s | -52.2°C | 0.8% | 0hPa | 5.5V | 00:00:00 | 00:00:00 | 00:00:00 | |
| LZ4TU-5 | 2026-08-30 18:29:23 | 44.68023 | 20.86892 | 24° | 20km/h | 25708m | 4.3m/s | -52.3°C | 0.8% | 0hPa | 5.5V | 00:00:00 | 00:00:00 | 00:00:00 | |
| 9A1FER-3 | 2026-08-30 18:29:06 | 44.67971 | 20.86836 | 291° | 26km/h | 25589m | 6.9m/s | -52.0°C | 0% | 0hPa | 5.5V | 00:00:00 | 00:00:00 | 00:00:00 | |
| OE3JTB-15 | 2026-08-30 18:29:00 | 44.67938 | 20.86814 | 24° | 20km/h | 25546m | 7.6m/s | -52.0°C | 0% | 0hPa | 5.5V | 00:00:00 | 00:00:00 | 00:00:00 | |
| LZ4TU-5 | 2026-08-30 18:27:53 | 44.67545 | 20.87108 | 257° | 15km/h | 25091m | 7.7m/s | -52.8°C | 1.1% | 0hPa | 5.5V | 00:00:00 | 00:00:00 | 00:00:00 | |
| LZ4TU-5 | 2026-08-30 18:27:48 | 44.67548 | 20.87151 | 291° | 27km/h | 25058m | 6.5m/s | -52.9°C | 1.1% | 0hPa | 5.5V | 00:00:00 | 00:00:00 | 00:00:00 | |
| LZ4TU-5 | 2026-08-30 18:26:25 | 44.67661 | 20.87336 | 144° | 13km/h | 24507m | 6.8m/s | -52.1°C | 1.0% | 0hPa | 5.5V | 00:00:00 | 00:00:00 | 00:00:00 | |
| LZ4TU-5 | 2026-08-30 18:26:20 | 44.67680 | 20.87314 | 0° | 0km/h | 24474m | 6.7m/s | -52.3°C | 1.0% | 0hPa | 5.5V | 00:00:00 | 00:00:00 | 00:00:00 | |
| OE3JTB-15 | 2026-08-30 18:25:45 | 44.67653 | 20.87433 | 278° | 18km/h | 24243m | 6.8m/s | -52.0°C | 0% | 0hPa | 5.5V | 00:00:00 | 00:00:00 | 00:00:00 | |
| 9A1FER-3 | 2026-08-30 18:25:29 | 44.67672 | 20.87523 | 232° | 13km/h | 24137m | 6.5m/s | -52.4°C | 0% | 0hPa | 5.5V | 00:00:00 | 00:00:00 | 00:00:00 | |
| OE3JTB-15 | 2026-08-30 18:25:13 | 44.67705 | 20.87579 | 219° | 11km/h | 24032m | 7.4m/s | -52.5°C | 0% | 0hPa | 5.5V | 00:00:00 | 00:00:00 | 00:00:00 | |
| 9A1FER-3 | 2026-08-30 18:25:06 | 44.67718 | 20.87601 | 166° | 15km/h | 23985m | 7.3m/s | -52.4°C | 0% | 0hPa | 5.5V | 00:00:00 | 00:00:00 | 00:00:00 | |
| LZ4TU-5 | 2026-08-30 18:25:05 | 44.67719 | 20.87601 | 132° | 4km/h | 23980m | 5.5m/s | -53.2°C | 1.0% | 0hPa | 5.5V | 00:00:00 | 00:00:00 | 00:00:00 | |
| LZ4TU-5 | 2026-08-30 18:25:01 | 44.67727 | 20.87600 | 244° | 5km/h | 23944m | 6.8m/s | -53.3°C | 1.0% | 0hPa | 5.5V | 00:00:00 | 00:00:00 | 00:00:00 | |
| OM5KV | 2026-08-30 18:24:46 | 44.67768 | 20.87601 | 150° | 15km/h | 23857m | 3.8m/s | -53.5°C | 1.0% | 0hPa | 5.5V | 00:00:00 | 00:00:00 | 00:00:00 | |
| 9A1FER-3 | 2026-08-30 18:24:39 | 44.67797 | 20.87599 | 232° | 13km/h | 23810m | 8.4m/s | -53.2°C | 0% | 0hPa | 5.5V | 00:00:00 | 00:00:00 | 00:00:00 | |
| OM5KV | 2026-08-30 18:24:35 | 44.67805 | 20.87598 | 180° | 15km/h | 23783m | 7.1m/s | -54.0°C | 1.2% | 0hPa | 5.5V | 00:00:00 | 00:00:00 | 00:00:00 | |
| OM5KV | 2026-08-30 18:24:30 | 44.67823 | 20.87601 | 181° | 9km/h | 23750m | 8.1m/s | -54.1°C | 1.2% | 0hPa | 5.5V | 00:00:00 | 00:00:00 | 00:00:00 | |
| OM5KV | 2026-08-30 18:24:19 | 44.67866 | 20.87575 | 79° | 11km/h | 23682m | 4.9m/s | -54.1°C | 1.2% | 0hPa | 5.5V | 00:00:00 | 00:00:00 | 00:00:00 | |
| OM5KV | 2026-08-30 18:24:13 | 44.67871 | 20.87572 | 142° | 5km/h | 23642m | 8.6m/s | -54.1°C | 1.2% | 0hPa | 5.5V | 00:00:00 | 00:00:00 | 00:00:00 | |
| OM5KV | 2026-08-30 18:24:08 | 44.67874 | 20.87558 | 96° | 7km/h | 23613m | 5.7m/s | -54.0°C | 1.2% | 0hPa | 5.5V | 00:00:00 | 00:00:00 | 00:00:00 | |
| OM5KV | 2026-08-30 18:24:01 | 44.67868 | 20.87554 | 336° | 9km/h | 23564m | 9.0m/s | -54.0°C | 1.2% | 0hPa | 5.5V | 00:00:00 | 00:00:00 | 00:00:00 | |
| OE3JTB-15 | 2026-08-30 18:23:55 | 44.67860 | 20.87535 | 66° | 15km/h | 23527m | 7.6m/s | -53.5°C | 0% | 0hPa | 5.5V | 00:00:00 | 00:00:00 | 00:00:00 | |
| LZ4TU-5 | 2026-08-30 18:23:46 | 44.67830 | 20.87532 | 341° | 9km/h | 23472m | 6.5m/s | -54.1°C | 1.2% | 0hPa | 5.6V | 00:00:00 | 00:00:00 | 00:00:00 | |
| OM5KV | 2026-08-30 18:23:43 | 44.67831 | 20.87530 | 149° | 11km/h | 23453m | 5.4m/s | -54.1°C | 1.2% | 0hPa | 5.6V | 00:00:00 | 00:00:00 | 00:00:00 | |
| LZ4TU-5 | 2026-08-30 18:23:41 | 44.67833 | 20.87530 | 289° | 9km/h | 23441m | 4.8m/s | -54.0°C | 1.1% | 0hPa | 5.6V | 00:00:00 | 00:00:00 | 00:00:00 | |
| OM5KV | 2026-08-30 18:23:37 | 44.67821 | 20.87542 | 332° | 16km/h | 23415m | 5.9m/s | -54.0°C | 1.1% | 0hPa | 5.6V | 00:00:00 | 00:00:00 | 00:00:00 | |
| OM5KV | 2026-08-30 18:23:32 | 44.67826 | 20.87554 | 236° | 11km/h | 23381m | 4.4m/s | -54.1°C | 1.2% | 0hPa | 5.6V | 00:00:00 | 00:00:00 | 00:00:00 | |
| OM5KV | 2026-08-30 18:23:26 | 44.67823 | 20.87584 | 297° | 27km/h | 23341m | 4.5m/s | -54.1°C | 1.1% | 0hPa | 5.6V | 00:00:00 | 00:00:00 | 00:00:00 | |
| OM5KV | 2026-08-30 18:23:21 | 44.67825 | 20.87607 | 202° | 16km/h | 23311m | 5.9m/s | -54.1°C | 1.1% | 0hPa | 5.6V | 00:00:00 | 00:00:00 | 00:00:00 | |
| OM5KV | 2026-08-30 18:23:18 | 44.67836 | 20.87619 | 232° | 18km/h | 23291m | 6.8m/s | -54.2°C | 1.1% | 0hPa | 5.6V | 00:00:00 | 00:00:00 | 00:00:00 | |
| OM5KV | 2026-08-30 18:23:15 | 44.67845 | 20.87636 | 242° | 18km/h | 23271m | 7.2m/s | -54.2°C | 1.1% | 0hPa | 5.6V | 00:00:00 | 00:00:00 | 00:00:00 | |
| OM5KV | 2026-08-30 18:23:13 | 44.67848 | 20.87645 | 231° | 11km/h | 23259m | 4.0m/s | -54.3°C | 1.1% | 0hPa | 5.6V | 00:00:00 | 00:00:00 | 00:00:00 | |
| OM5KV | 2026-08-30 18:23:04 | 44.67886 | 20.87677 | 213° | 13km/h | 23198m | 7.2m/s | -54.4°C | 1.2% | 0hPa | 5.6V | 00:00:00 | 00:00:00 | 00:00:00 | |
| OM5KV | 2026-08-30 18:22:59 | 44.67905 | 20.87692 | 176° | 18km/h | 23165m | 8.8m/s | -54.6°C | 1.2% | 0hPa | 5.6V | 00:00:00 | 00:00:00 | 00:00:00 | |
| OM5KV | 2026-08-30 18:22:55 | 44.67923 | 20.87688 | 151° | 16km/h | 23140m | 4.6m/s | -54.6°C | 1.2% | 0hPa | 5.6V | 00:00:00 | 00:00:00 | 00:00:00 | |
| OM5KV | 2026-08-30 18:22:54 | 44.67927 | 20.87685 | 159° | 15km/h | 23134m | 6.8m/s | -54.6°C | 1.2% | 0hPa | 5.6V | 00:00:00 | 00:00:00 | 00:00:00 | |
| OM5KV | 2026-08-30 18:22:49 | 44.67942 | 20.87688 | 182° | 13km/h | 23099m | 7.0m/s | -54.7°C | 1.2% | 0hPa | 5.6V | 00:00:00 | 00:00:00 | 00:00:00 | |
| OM5KV | 2026-08-30 18:22:43 | 44.67958 | 20.87674 | 99° | 13km/h | 23059m | 4.9m/s | -54.8°C | 1.2% | 0hPa | 5.6V | 00:00:00 | 00:00:00 | 00:00:00 | |
| OM5KV | 2026-08-30 18:22:42 | 44.67958 | 20.87670 | 97° | 7km/h | 23051m | 8.2m/s | -54.9°C | 1.2% | 0hPa | 5.6V | 00:00:00 | 00:00:00 | 00:00:00 | |
| OM5KV | 2026-08-30 18:22:37 | 44.67966 | 20.87677 | 201° | 9km/h | 23016m | 6.7m/s | -54.9°C | 1.3% | 0hPa | 5.6V | 00:00:00 | 00:00:00 | 00:00:00 | |
| OM5KV | 2026-08-30 18:22:31 | 44.67967 | 20.87648 | 74° | 29km/h | 22979m | 3.7m/s | -55.1°C | 1.3% | 0hPa | 5.6V | 00:00:00 | 00:00:00 | 00:00:00 | |
| LZ4TU-5 | 2026-08-30 18:22:25 | 44.67956 | 20.87649 | 0° | 0km/h | 22938m | 4.1m/s | -55.2°C | 1.4% | 0hPa | 5.6V | 00:00:00 | 00:00:00 | 00:00:00 | |
| OM5KV | 2026-08-30 18:22:24 | 44.67956 | 20.87647 | 66° | 9km/h | 22932m | 6.4m/s | -55.2°C | 1.4% | 0hPa | 5.6V | 00:00:00 | 00:00:00 | 00:00:00 | |
| LZ4TU-5 | 2026-08-30 18:22:20 | 44.67936 | 20.87623 | 39° | 31km/h | 22901m | 8.9m/s | -55.2°C | 1.4% | 0hPa | 5.6V | 00:00:00 | 00:00:00 | 00:00:00 | |
| OM5KV | 2026-08-30 18:22:19 | 44.67930 | 20.87617 | 39° | 22km/h | 22894m | 6.6m/s | -55.1°C | 1.4% | 0hPa | 5.6V | 00:00:00 | 00:00:00 | 00:00:00 | |
| OE3JTB-15 | 2026-08-30 18:22:18 | 44.67926 | 20.87614 | 13° | 11km/h | 22888m | 5.6m/s | -54.4°C | 0% | 0hPa | 5.6V | 00:00:00 | 00:00:00 | 00:00:00 | |
| OM5KV | 2026-08-30 18:22:13 | 44.67906 | 20.87628 | 344° | 22km/h | 22856m | 7.3m/s | -55.0°C | 1.4% | 0hPa | 5.6V | 00:00:00 | 00:00:00 | 00:00:00 | |
| OM5KV | 2026-08-30 18:22:12 | 44.67901 | 20.87630 | 349° | 16km/h | 22847m | 9.1m/s | -54.9°C | 1.4% | 0hPa | 5.6V | 00:00:00 | 00:00:00 | 00:00:00 | |
| OM5KV | 2026-08-30 18:22:07 | 44.67885 | 20.87625 | 353° | 15km/h | 22814m | 7.6m/s | -54.8°C | 1.4% | 0hPa | 5.6V | 00:00:00 | 00:00:00 | 00:00:00 | |
| OM5KV | 2026-08-30 18:22:06 | 44.67881 | 20.87626 | 336° | 13km/h | 22807m | 7.1m/s | -54.8°C | 1.4% | 0hPa | 5.6V | 00:00:00 | 00:00:00 | 00:00:00 | |
| OM5KV | 2026-08-30 18:22:00 | 44.67858 | 20.87650 | 347° | 9km/h | 22766m | 5.2m/s | -54.8°C | 1.4% | 0hPa | 5.6V | 00:00:00 | 00:00:00 | 00:00:00 | |
| OM5KV | 2026-08-30 18:21:55 | 44.67841 | 20.87649 | 330° | 13km/h | 22730m | 8.4m/s | -54.7°C | 1.4% | 0hPa | 5.6V | 00:00:00 | 00:00:00 | 00:00:00 | |
| OM5KV | 2026-08-30 18:21:49 | 44.67830 | 20.87678 | 348° | 9km/h | 22691m | 6.3m/s | -54.7°C | 1.4% | 0hPa | 5.6V | 00:00:00 | 00:00:00 | 00:00:00 | |
| OM5KV | 2026-08-30 18:21:44 | 44.67828 | 20.87675 | 27° | 7km/h | 22657m | 5.4m/s | -54.6°C | 1.4% | 0hPa | 5.6V | 00:00:00 | 00:00:00 | 00:00:00 | |
| OM5KV | 2026-08-30 18:21:41 | 44.67823 | 20.87684 | 286° | 22km/h | 22636m | 6.4m/s | -54.6°C | 1.4% | 0hPa | 5.6V | 00:00:00 | 00:00:00 | 00:00:00 | |
| OM5KV | 2026-08-30 18:21:30 | 44.67821 | 20.87715 | 286° | 18km/h | 22563m | 8.5m/s | -54.5°C | 1.3% | 0hPa | 5.6V | 00:00:00 | 00:00:00 | 00:00:00 | |
| OM5KV | 2026-08-30 18:21:25 | 44.67817 | 20.87736 | 329° | 7km/h | 22531m | 8.1m/s | -54.6°C | 1.4% | 0hPa | 5.6V | 00:00:00 | 00:00:00 | 00:00:00 | |
| OM5KV | 2026-08-30 18:21:24 | 44.67816 | 20.87737 | 0° | 0km/h | 22522m | 7.9m/s | -54.6°C | 1.4% | 0hPa | 5.6V | 00:00:00 | 00:00:00 | 00:00:00 | |
| OM5KV | 2026-08-30 18:21:19 | 44.67821 | 20.87756 | 273° | 26km/h | 22490m | 7.7m/s | -54.7°C | 1.4% | 0hPa | 5.6V | 00:00:00 | 00:00:00 | 00:00:00 | |
| OM5KV | 2026-08-30 18:21:18 | 44.67821 | 20.87764 | 268° | 20km/h | 22481m | 8.9m/s | -54.7°C | 1.4% | 0hPa | 5.6V | 00:00:00 | 00:00:00 | 00:00:00 | |
| OM5KV | 2026-08-30 18:21:14 | 44.67815 | 20.87779 | 336° | 15km/h | 22456m | 4.4m/s | -54.6°C | 1.3% | 0hPa | 5.6V | 00:00:00 | 00:00:00 | 00:00:00 | |
| OM5KV | 2026-08-30 18:21:12 | 44.67812 | 20.87781 | 0° | 0km/h | 22443m | 8.8m/s | -54.6°C | 1.3% | 0hPa | 5.6V | 00:00:00 | 00:00:00 | 00:00:00 | |
| OM5KV | 2026-08-30 18:21:07 | 44.67825 | 20.87797 | 243° | 24km/h | 22410m | 5.0m/s | -54.8°C | 1.4% | 0hPa | 5.6V | 00:00:00 | 00:00:00 | 00:00:00 | |
| OM5KV | 2026-08-30 18:21:02 | 44.67828 | 20.87811 | 51° | 5km/h | 22376m | 4.8m/s | -54.8°C | 1.3% | 0hPa | 5.6V | 00:00:00 | 00:00:00 | 00:00:00 | |
| 9A1FER-3 | 2026-08-30 18:20:56 | 44.67834 | 20.87809 | 281° | 9km/h | 22335m | 6.9m/s | -54.0°C | 0% | 0hPa | 5.6V | 00:00:00 | 00:00:00 | 00:00:00 | |
| OM5KV | 2026-08-30 18:20:54 | 44.67833 | 20.87815 | 314° | 4km/h | 22321m | 6.4m/s | -54.8°C | 1.4% | 0hPa | 5.6V | 00:00:00 | 00:00:00 | 00:00:00 | |
| LZ4TU-5 | 2026-08-30 18:20:51 | 44.67830 | 20.87813 | 54° | 7km/h | 22303m | 4.0m/s | -54.8°C | 1.4% | 0hPa | 5.6V | 00:00:00 | 00:00:00 | 00:00:00 | |
| OM5KV | 2026-08-30 18:20:49 | 44.67830 | 20.87806 | 104° | 13km/h | 22291m | 7.9m/s | -54.8°C | 1.4% | 0hPa | 5.6V | 00:00:00 | 00:00:00 | 00:00:00 | |
| LZ4TU-5 | 2026-08-30 18:20:47 | 44.67831 | 20.87797 | 102° | 7km/h | 22279m | 5.5m/s | -54.8°C | 1.4% | 0hPa | 5.6V | 00:00:00 | 00:00:00 | 00:00:00 | |
| OM5KV | 2026-08-30 18:20:45 | 44.67830 | 20.87797 | 326° | 9km/h | 22267m | 6.7m/s | -54.8°C | 1.3% | 0hPa | 5.6V | 00:00:00 | 00:00:00 | 00:00:00 | |
| OM5KV | 2026-08-30 18:20:42 | 44.67820 | 20.87801 | 354° | 15km/h | 22246m | 5.1m/s | -54.9°C | 1.3% | 0hPa | 5.6V | 00:00:00 | 00:00:00 | 00:00:00 | |
| OM5KV | 2026-08-30 18:20:40 | 44.67814 | 20.87802 | 4° | 9km/h | 22234m | 8.0m/s | -54.9°C | 1.3% | 0hPa | 5.6V | 00:00:00 | 00:00:00 | 00:00:00 | |
| 9A1FER-3 | 2026-08-30 18:20:35 | 44.67809 | 20.87797 | 47° | 16km/h | 22202m | 7.0m/s | -54.4°C | 0% | 0hPa | 5.6V | 00:00:00 | 00:00:00 | 00:00:00 | |
| OM5KV | 2026-08-30 18:20:33 | 44.67804 | 20.87794 | 9° | 11km/h | 22189m | 6.4m/s | -55.2°C | 1.4% | 0hPa | 5.6V | 00:00:00 | 00:00:00 | 00:00:00 | |
| OM5KV | 2026-08-30 18:20:26 | 44.67776 | 20.87808 | 350° | 15km/h | 22144m | 7.8m/s | -55.2°C | 1.4% | 0hPa | 5.6V | 00:00:00 | 00:00:00 | 00:00:00 | |
| OM5KV | 2026-08-30 18:20:23 | 44.67764 | 20.87799 | 37° | 20km/h | 22125m | 7.2m/s | -55.2°C | 1.4% | 0hPa | 5.6V | 00:00:00 | 00:00:00 | 00:00:00 | |
| 9A1FER-3 | 2026-08-30 18:20:18 | 44.67746 | 20.87806 | 325° | 13km/h | 22094m | 5.0m/s | -54.4°C | 0% | 0hPa | 5.6V | 00:00:00 | 00:00:00 | 00:00:00 | |
| OM5KV | 2026-08-30 18:20:15 | 44.67735 | 20.87815 | 6° | 13km/h | 22077m | 4.9m/s | -55.3°C | 1.4% | 0hPa | 5.6V | 00:00:00 | 00:00:00 | 00:00:00 | |
| OM5KV | 2026-08-30 18:20:11 | 44.67721 | 20.87809 | 16° | 7km/h | 22051m | 7.1m/s | -55.3°C | 1.4% | 0hPa | 5.6V | 00:00:00 | 00:00:00 | 00:00:00 | |
| OM5KV | 2026-08-30 18:20:09 | 44.67719 | 20.87813 | 295° | 13km/h | 22038m | 7.9m/s | -55.5°C | 1.5% | 0hPa | 5.6V | 00:00:00 | 00:00:00 | 00:00:00 | |
| 9A1FER-3 | 2026-08-30 18:20:03 | 44.67710 | 20.87833 | 34° | 7km/h | 21998m | 7.4m/s | -54.7°C | 0% | 0hPa | 5.6V | 00:00:00 | 00:00:00 | 00:00:00 | |
| OM5KV | 2026-08-30 18:20:01 | 44.67707 | 20.87831 | 21° | 4km/h | 21987m | 5.4m/s | -55.5°C | 1.5% | 0hPa | 5.6V | 00:00:00 | 00:00:00 | 00:00:00 | |
| OM5KV | 2026-08-30 18:19:56 | 44.67704 | 20.87835 | 226° | 9km/h | 21955m | 4.9m/s | -55.4°C | 1.5% | 0hPa | 5.6V | 00:00:00 | 00:00:00 | 00:00:00 | |
| OM5KV | 2026-08-30 18:19:49 | 44.67701 | 20.87834 | 63° | 11km/h | 21909m | 7.1m/s | -55.5°C | 1.5% | 0hPa | 5.6V | 00:00:00 | 00:00:00 | 00:00:00 | |
| 9A1FER-3 | 2026-08-30 18:19:48 | 44.67700 | 20.87831 | 36° | 11km/h | 21902m | 6.6m/s | -54.7°C | 0% | 0hPa | 5.6V | 00:00:00 | 00:00:00 | 00:00:00 | |
| OM5KV | 2026-08-30 18:19:41 | 44.67692 | 20.87817 | 105° | 5km/h | 21862m | 4.6m/s | -55.4°C | 1.5% | 0hPa | 5.6V | 00:00:00 | 00:00:00 | 00:00:00 | |
| OM5KV | 2026-08-30 18:19:37 | 44.67688 | 20.87809 | 1° | 16km/h | 21838m | 6.4m/s | -55.4°C | 1.5% | 0hPa | 5.6V | 00:00:00 | 00:00:00 | 00:00:00 | |
| OM5KV | 2026-08-30 18:19:35 | 44.67679 | 20.87809 | 5° | 20km/h | 21825m | 6.2m/s | -55.4°C | 1.5% | 0hPa | 5.6V | 00:00:00 | 00:00:00 | 00:00:00 | |
| 9A1FER-3 | 2026-08-30 18:19:33 | 44.67669 | 20.87809 | 348° | 20km/h | 21813m | 6.7m/s | -54.6°C | 0% | 0hPa | 5.6V | 00:00:00 | 00:00:00 | 00:00:00 | |
| OM5KV | 2026-08-30 18:19:31 | 44.67664 | 20.87814 | 317° | 11km/h | 21801m | 5.0m/s | -55.3°C | 1.5% | 0hPa | 5.6V | 00:00:00 | 00:00:00 | 00:00:00 | |
| OM5KV | 2026-08-30 18:19:29 | 44.67659 | 20.87818 | 346° | 9km/h | 21788m | 7.0m/s | -55.3°C | 1.5% | 0hPa | 5.6V | 00:00:00 | 00:00:00 | 00:00:00 | |
| LZ4TU-5 | 2026-08-30 18:19:28 | 44.67657 | 20.87819 | 356° | 11km/h | 21783m | 4.3m/s | -55.3°C | 1.5% | 0hPa | 5.6V | 00:00:00 | 00:00:00 | 00:00:00 | |
| OM5KV | 2026-08-30 18:19:25 | 44.67648 | 20.87820 | 344° | 15km/h | 21765m | 5.6m/s | -55.4°C | 1.5% | 0hPa | 5.6V | 00:00:00 | 00:00:00 | 00:00:00 | |
| OM5KV | 2026-08-30 18:19:24 | 44.67645 | 20.87822 | 337° | 18km/h | 21759m | 5.2m/s | -55.4°C | 1.5% | 0hPa | 5.6V | 00:00:00 | 00:00:00 | 00:00:00 | |
| OM5KV | 2026-08-30 18:19:18 | 44.67614 | 20.87836 | 321° | 15km/h | 21723m | 7.3m/s | -55.4°C | 1.5% | 0hPa | 5.6V | 00:00:00 | 00:00:00 | 00:00:00 | |
| OM5KV | 2026-08-30 18:19:13 | 44.67599 | 20.87847 | 339° | 22km/h | 21695m | 7.1m/s | -55.3°C | 1.4% | 0hPa | 5.6V | 00:00:00 | 00:00:00 | 00:00:00 | |
| OM5KV | 2026-08-30 18:19:12 | 44.67593 | 20.87849 | 350° | 29km/h | 21688m | 7.0m/s | -55.3°C | 1.4% | 0hPa | 5.6V | 00:00:00 | 00:00:00 | 00:00:00 | |
| OM5KV | 2026-08-30 18:19:08 | 44.67569 | 20.87859 | 298° | 13km/h | 21666m | 3.7m/s | -55.3°C | 1.4% | 0hPa | 5.6V | 00:00:00 | 00:00:00 | 00:00:00 | |
| OM5KV | 2026-08-30 18:19:06 | 44.67566 | 20.87866 | 320° | 13km/h | 21654m | 7.3m/s | -55.3°C | 1.4% | 0hPa | 5.6V | 00:00:00 | 00:00:00 | 00:00:00 | |
| 9A1FER-3 | 2026-08-30 18:19:01 | 44.67536 | 20.87879 | 340° | 31km/h | 21624m | 7.6m/s | -54.8°C | 0% | 0hPa | 5.6V | 00:00:00 | 00:00:00 | 00:00:00 | |
| OM5KV | 2026-08-30 18:18:54 | 44.67492 | 20.87926 | 327° | 13km/h | 21584m | 7.2m/s | -55.4°C | 1.4% | 0hPa | 5.6V | 00:00:00 | 00:00:00 | 00:00:00 | |
| OM5KV | 2026-08-30 18:18:49 | 44.67466 | 20.87954 | 318° | 29km/h | 21553m | 6.1m/s | -55.5°C | 1.4% | 0hPa | 5.6V | 00:00:00 | 00:00:00 | 00:00:00 | |
| 9A1FER-3 | 2026-08-30 18:18:46 | 44.67450 | 20.87976 | 315° | 15km/h | 21536m | 5.2m/s | -54.8°C | 0% | 0hPa | 5.6V | 00:00:00 | 00:00:00 | 00:00:00 | |
| OM5KV | 2026-08-30 18:18:41 | 44.67440 | 20.87990 | 318° | 20km/h | 21503m | 5.8m/s | -55.5°C | 1.4% | 0hPa | 5.6V | 00:00:00 | 00:00:00 | 00:00:00 | |
| OM5KV | 2026-08-30 18:18:37 | 44.67429 | 20.88012 | 277° | 16km/h | 21481m | 5.6m/s | -55.6°C | 1.4% | 0hPa | 5.6V | 00:00:00 | 00:00:00 | 00:00:00 | |
| OM5KV | 2026-08-30 18:18:35 | 44.67430 | 20.88025 | 248° | 20km/h | 21469m | 4.2m/s | -55.8°C | 1.4% | 0hPa | 5.6V | 00:00:00 | 00:00:00 | 00:00:00 | |
| OM5KV | 2026-08-30 18:18:32 | 44.67432 | 20.88037 | 329° | 11km/h | 21451m | 6.1m/s | -55.9°C | 1.5% | 0hPa | 5.6V | 00:00:00 | 00:00:00 | 00:00:00 | |
| 9A1FER-3 | 2026-08-30 18:18:31 | 44.67429 | 20.88039 | 336° | 15km/h | 21444m | 6.2m/s | -55.1°C | 0% | 0hPa | 5.6V | 00:00:00 | 00:00:00 | 00:00:00 | |
| OM5KV | 2026-08-30 18:18:29 | 44.67422 | 20.88047 | 302° | 20km/h | 21432m | 5.2m/s | -55.9°C | 1.5% | 0hPa | 5.6V | 00:00:00 | 00:00:00 | 00:00:00 | |
| OM5KV | 2026-08-30 18:18:26 | 44.67418 | 20.88074 | 264° | 31km/h | 21415m | 4.4m/s | -55.8°C | 1.4% | 0hPa | 5.6V | 00:00:00 | 00:00:00 | 00:00:00 | |
| GYPAP8-17 | 2026-08-30 18:18:22 | 44.67426 | 20.88094 | 182° | 4km/h | 21388m | 6.2m/s | -55.8°C | 1.4% | 0hPa | 5.6V | 00:00:00 | 00:00:00 | 00:00:00 | |
| OM5KV | 2026-08-30 18:18:21 | 44.67426 | 20.88094 | 293° | 2km/h | 21381m | 7.1m/s | -55.8°C | 1.4% | 0hPa | 5.6V | 00:00:00 | 00:00:00 | 00:00:00 | |
| OM5KV | 2026-08-30 18:18:15 | 44.67430 | 20.88133 | 251° | 33km/h | 21348m | 5.2m/s | -55.9°C | 1.4% | 0hPa | 5.6V | 00:00:00 | 00:00:00 | 00:00:00 | |
| 9A1FER-3 | 2026-08-30 18:18:13 | 44.67435 | 20.88149 | 241° | 15km/h | 21335m | 7.0m/s | -55.1°C | 0% | 0hPa | 5.6V | 00:00:00 | 00:00:00 | 00:00:00 | |
| OM5KV | 2026-08-30 18:18:09 | 44.67437 | 20.88157 | 294° | 7km/h | 21311m | 5.5m/s | -56.1°C | 1.5% | 0hPa | 5.6V | 00:00:00 | 00:00:00 | 00:00:00 | |
| LZ4TU-5 | 2026-08-30 18:18:08 | 44.67437 | 20.88160 | 265° | 11km/h | 21304m | 7.2m/s | -56.1°C | 1.5% | 0hPa | 5.6V | 00:00:00 | 00:00:00 | 00:00:00 | |
| OM5KV | 2026-08-30 18:18:03 | 44.67443 | 20.88201 | 267° | 22km/h | 21274m | 6.5m/s | -56.2°C | 1.5% | 0hPa | 5.6V | 00:00:00 | 00:00:00 | 00:00:00 | |
| OM5KV | 2026-08-30 18:18:02 | 44.67444 | 20.88206 | 268° | 11km/h | 21268m | 6.0m/s | -56.2°C | 1.5% | 0hPa | 5.6V | 00:00:00 | 00:00:00 | 00:00:00 | |
| 9A1FER-3 | 2026-08-30 18:17:57 | 44.67436 | 20.88225 | 286° | 9km/h | 21237m | 6.5m/s | -55.4°C | 0% | 0hPa | 5.6V | 00:00:00 | 00:00:00 | 00:00:00 | |
| OM5KV | 2026-08-30 18:17:45 | 44.67440 | 20.88275 | 245° | 16km/h | 21161m | 7.2m/s | -56.4°C | 1.5% | 0hPa | 5.6V | 00:00:00 | 00:00:00 | 00:00:00 | |
| OM5KV | 2026-08-30 18:17:44 | 44.67442 | 20.88282 | 246° | 26km/h | 21154m | 6.4m/s | -56.5°C | 1.5% | 0hPa | 5.6V | 00:00:00 | 00:00:00 | 00:00:00 | |
| 9A1FER-3 | 2026-08-30 18:17:42 | 44.67445 | 20.88301 | 270° | 13km/h | 21142m | 6.2m/s | -55.7°C | 0% | 0hPa | 5.6V | 00:00:00 | 00:00:00 | 00:00:00 | |
| OM5KV | 2026-08-30 18:17:40 | 44.67444 | 20.88317 | 283° | 16km/h | 21130m | 6.7m/s | -56.6°C | 1.6% | 0hPa | 5.6V | 00:00:00 | 00:00:00 | 00:00:00 | |
| OM5KV | 2026-08-30 18:17:38 | 44.67445 | 20.88323 | 170° | 5km/h | 21118m | 4.4m/s | -56.5°C | 1.6% | 0hPa | 5.6V | 00:00:00 | 00:00:00 | 00:00:00 | |
| OM5KV | 2026-08-30 18:17:35 | 44.67447 | 20.88322 | 240° | 5km/h | 21103m | 3.1m/s | -56.4°C | 1.5% | 0hPa | 5.6V | 00:00:00 | 00:00:00 | 00:00:00 | |
| OM5KV | 2026-08-30 18:17:29 | 44.67455 | 20.88341 | 306° | 15km/h | 21065m | 5.0m/s | -56.6°C | 1.5% | 0hPa | 5.6V | 00:00:00 | 00:00:00 | 00:00:00 | |
| 9A1FER-3 | 2026-08-30 18:17:24 | 44.67451 | 20.88356 | 290° | 11km/h | 21034m | 6.2m/s | -56.0°C | 0% | 0hPa | 5.6V | 00:00:00 | 00:00:00 | 00:00:00 | |
| OM5KV | 2026-08-30 18:17:23 | 44.67451 | 20.88358 | 0° | 0km/h | 21027m | 6.2m/s | -56.9°C | 1.7% | 0hPa | 5.6V | 00:00:00 | 00:00:00 | 00:00:00 | |
| OM5KV | 2026-08-30 18:17:17 | 44.67447 | 20.88372 | 317° | 16km/h | 20991m | 6.7m/s | -57.1°C | 1.8% | 0hPa | 5.6V | 00:00:00 | 00:00:00 | 00:00:00 | |
| OM5KV | 2026-08-30 18:17:15 | 44.67442 | 20.88378 | 322° | 9km/h | 20979m | 6.5m/s | -57.1°C | 1.8% | 0hPa | 5.6V | 00:00:00 | 00:00:00 | 00:00:00 | |
| OM5KV | 2026-08-30 18:17:09 | 44.67435 | 20.88389 | 262° | 5km/h | 20943m | 5.9m/s | -56.9°C | 1.8% | 0hPa | 5.6V | 00:00:00 | 00:00:00 | 00:00:00 | |
| OM5KV | 2026-08-30 18:17:02 | 44.67430 | 20.88414 | 257° | 13km/h | 20900m | 6.8m/s | -56.7°C | 1.7% | 0hPa | 5.6V | 00:00:00 | 00:00:00 | 00:00:00 | |
| OM5KV | 2026-08-30 18:16:56 | 44.67423 | 20.88433 | 314° | 16km/h | 20862m | 6.2m/s | -56.6°C | 1.7% | 0hPa | 5.6V | 00:00:00 | 00:00:00 | 00:00:00 | |
| LZ4TU-5 | 2026-08-30 18:16:54 | 44.67419 | 20.88443 | 282° | 16km/h | 20849m | 7.4m/s | -56.6°C | 1.7% | 0hPa | 5.6V | 00:00:00 | 00:00:00 | 00:00:00 | |
| OM5KV | 2026-08-30 18:16:51 | 44.67420 | 20.88459 | 280° | 9km/h | 20831m | 6.9m/s | -56.6°C | 1.7% | 0hPa | 5.6V | 00:00:00 | 00:00:00 | 00:00:00 | |
| LZ4TU-5 | 2026-08-30 18:16:49 | 44.67419 | 20.88463 | 316° | 5km/h | 20818m | 7.0m/s | -56.6°C | 1.7% | 0hPa | 5.6V | 00:00:00 | 00:00:00 | 00:00:00 | |
| 9A1FER-3 | 2026-08-30 18:16:48 | 44.67418 | 20.88464 | 285° | 11km/h | 20812m | 6.1m/s | -55.8°C | 0% | 0hPa | 5.6V | 00:00:00 | 00:00:00 | 00:00:00 | |
| OM5KV | 2026-08-30 18:16:46 | 44.67418 | 20.88468 | 286° | 4km/h | 20799m | 6.2m/s | -56.5°C | 1.7% | 0hPa | 5.6V | 00:00:00 | 00:00:00 | 00:00:00 | |
| OM5KV | 2026-08-30 18:16:45 | 44.67417 | 20.88469 | 275° | 7km/h | 20793m | 4.8m/s | -56.5°C | 1.7% | 0hPa | 5.6V | 00:00:00 | 00:00:00 | 00:00:00 | |
| OM5KV | 2026-08-30 18:16:41 | 44.67414 | 20.88494 | 283° | 20km/h | 20768m | 5.6m/s | -56.5°C | 1.7% | 0hPa | 5.6V | 00:00:00 | 00:00:00 | 00:00:00 | |
| OM5KV | 2026-08-30 18:16:40 | 44.67414 | 20.88499 | 279° | 13km/h | 20761m | 7.0m/s | -56.5°C | 1.7% | 0hPa | 5.6V | 00:00:00 | 00:00:00 | 00:00:00 | |
| OM5KV | 2026-08-30 18:16:34 | 44.67418 | 20.88507 | 245° | 9km/h | 20725m | 6.0m/s | -56.3°C | 1.7% | 0hPa | 5.6V | 00:00:00 | 00:00:00 | 00:00:00 | |
| 9A1FER-3 | 2026-08-30 18:16:33 | 44.67419 | 20.88511 | 257° | 18km/h | 20719m | 5.8m/s | -55.5°C | 0% | 0hPa | 5.6V | 00:00:00 | 00:00:00 | 00:00:00 | |
| OM5KV | 2026-08-30 18:16:29 | 44.67423 | 20.88544 | 259° | 18km/h | 20693m | 6.7m/s | -56.2°C | 1.7% | 0hPa | 5.6V | 00:00:00 | 00:00:00 | 00:00:00 | |
| OM5KV | 2026-08-30 18:16:24 | 44.67436 | 20.88549 | 182° | 16km/h | 20663m | 5.5m/s | -56.2°C | 1.7% | 0hPa | 5.6V | 00:00:00 | 00:00:00 | 00:00:00 | |
| OM5KV | 2026-08-30 18:16:23 | 44.67439 | 20.88550 | 200° | 11km/h | 20657m | 6.7m/s | -56.2°C | 1.7% | 0hPa | 5.6V | 00:00:00 | 00:00:00 | 00:00:00 | |
| OM5KV | 2026-08-30 18:16:18 | 44.67445 | 20.88583 | 256° | 22km/h | 20625m | 6.4m/s | -56.2°C | 1.7% | 0hPa | 5.6V | 00:00:00 | 00:00:00 | 00:00:00 | |
| 9A1FER-3 | 2026-08-30 18:16:17 | 44.67447 | 20.88588 | 239° | 13km/h | 20619m | 5.7m/s | -55.4°C | 0% | 0hPa | 5.6V | 00:00:00 | 00:00:00 | 00:00:00 | |
| OM5KV | 2026-08-30 18:16:16 | 44.67449 | 20.88591 | 205° | 13km/h | 20613m | 5.8m/s | -56.1°C | 1.6% | 0hPa | 5.6V | 00:00:00 | 00:00:00 | 00:00:00 | |
| OM5KV | 2026-08-30 18:16:11 | 44.67470 | 20.88595 | 197° | 15km/h | 20582m | 5.5m/s | -56.0°C | 1.6% | 0hPa | 5.6V | 00:00:00 | 00:00:00 | 00:00:00 | |
| OM5KV | 2026-08-30 18:16:06 | 44.67487 | 20.88619 | 222° | 20km/h | 20553m | 7.2m/s | -56.0°C | 1.6% | 0hPa | 5.6V | 00:00:00 | 00:00:00 | 00:00:00 | |
| OM5KV | 2026-08-30 18:16:00 | 44.67495 | 20.88624 | 225° | 7km/h | 20516m | 5.4m/s | -56.3°C | 1.6% | 0hPa | 5.6V | 00:00:00 | 00:00:00 | 00:00:00 | |
| 9A1FER-3 | 2026-08-30 18:15:57 | 44.67506 | 20.88636 | 210° | 9km/h | 20498m | 5.8m/s | -55.5°C | 0% | 0hPa | 5.6V | 00:00:00 | 00:00:00 | 00:00:00 | |
| OM5KV | 2026-08-30 18:15:55 | 44.67517 | 20.88644 | 218° | 16km/h | 20485m | 6.9m/s | -56.4°C | 1.6% | 0hPa | 5.6V | 00:00:00 | 00:00:00 | 00:00:00 | |
| OM5KV | 2026-08-30 18:15:49 | 44.67519 | 20.88656 | 230° | 5km/h | 20449m | 6.0m/s | -56.4°C | 1.6% | 0hPa | 5.6V | 00:00:00 | 00:00:00 | 00:00:00 | |
| OM5KV | 2026-08-30 18:15:43 | 44.67534 | 20.88661 | 211° | 5km/h | 20413m | 6.0m/s | -56.6°C | 1.7% | 0hPa | 5.6V | 00:00:00 | 00:00:00 | 00:00:00 | |
| 9A1FER-3 | 2026-08-30 18:15:40 | 44.67535 | 20.88661 | 46° | 4km/h | 20392m | 7.5m/s | -55.9°C | 0% | 0hPa | 5.6V | 00:00:00 | 00:00:00 | 00:00:00 | |
| OM5KV | 2026-08-30 18:15:38 | 44.67533 | 20.88659 | 44° | 4km/h | 20380m | 5.7m/s | -56.7°C | 1.8% | 0hPa | 5.6V | 00:00:00 | 00:00:00 | 00:00:00 | |
| OM5KV | 2026-08-30 18:15:32 | 44.67533 | 20.88658 | 0° | 0km/h | 20342m | 7.3m/s | -56.8°C | 1.8% | 0hPa | 5.6V | 00:00:00 | 00:00:00 | 00:00:00 | |
| OM5KV | 2026-08-30 18:15:31 | 44.67533 | 20.88658 | 80° | 4km/h | 20336m | 6.6m/s | -56.8°C | 1.8% | 0hPa | 5.6V | 00:00:00 | 00:00:00 | 00:00:00 | |
| LZ4TU-5 | 2026-08-30 18:15:30 | 44.67533 | 20.88656 | 73° | 7km/h | 20330m | 4.9m/s | -56.8°C | 0% | 0hPa | 5.6V | 00:00:00 | 00:00:00 | 00:00:00 | |
| OM5KV | 2026-08-30 18:15:26 | 44.67529 | 20.88649 | 20° | 11km/h | 20306m | 8.2m/s | -56.9°C | 1.9% | 0hPa | 5.6V | 00:00:00 | 00:00:00 | 00:00:00 | |
| 9A1FER-3 | 2026-08-30 18:15:25 | 44.67525 | 20.88649 | 1° | 11km/h | 20301m | 5.0m/s | -56.1°C | 0% | 0hPa | 5.6V | 00:00:00 | 00:00:00 | 00:00:00 | |
| OM5KV | 2026-08-30 18:15:21 | 44.67517 | 20.88649 | 51° | 5km/h | 20278m | 4.1m/s | -57.0°C | 1.9% | 0hPa | 5.6V | 00:00:00 | 00:00:00 | 00:00:00 | |
| OM5KV | 2026-08-30 18:15:19 | 44.67514 | 20.88645 | 53° | 9km/h | 20265m | 6.7m/s | -56.9°C | 1.9% | 0hPa | 5.6V | 00:00:00 | 00:00:00 | 00:00:00 | |
| 9A1FER-3 | 2026-08-30 18:15:10 | 44.67495 | 20.88638 | 3° | 11km/h | 20208m | 5.7m/s | -55.8°C | 0% | 0hPa | 5.6V | 00:00:00 | 00:00:00 | 00:00:00 | |
| OM5KV | 2026-08-30 18:15:07 | 44.67486 | 20.88637 | 3° | 11km/h | 20190m | 6.2m/s | -56.6°C | 1.9% | 0hPa | 5.6V | 00:00:00 | 00:00:00 | 00:00:00 | |
| OM5KV | 2026-08-30 18:15:05 | 44.67482 | 20.88635 | 38° | 5km/h | 20178m | 5.3m/s | -56.5°C | 1.9% | 0hPa | 5.6V | 00:00:00 | 00:00:00 | 00:00:00 | |
| OM5KV | 2026-08-30 18:15:01 | 44.67482 | 20.88645 | 268° | 13km/h | 20153m | 6.7m/s | -56.5°C | 1.9% | 0hPa | 5.6V | 00:00:00 | 00:00:00 | 00:00:00 | |
| OM5KV | 2026-08-30 18:15:00 | 44.67482 | 20.88649 | 294° | 9km/h | 20147m | 5.4m/s | -56.6°C | 1.9% | 0hPa | 5.6V | 00:00:00 | 00:00:00 | 00:00:00 | |
| OM5KV | 2026-08-30 18:14:54 | 44.67467 | 20.88664 | 310° | 7km/h | 20110m | 5.1m/s | -56.4°C | 1.9% | 0hPa | 5.6V | 00:00:00 | 00:00:00 | 00:00:00 | |
| OM5KV | 2026-08-30 18:14:50 | 44.67469 | 20.88684 | 255° | 16km/h | 20088m | 5.0m/s | -56.3°C | 1.8% | 0hPa | 5.6V | 00:00:00 | 00:00:00 | 00:00:00 | |
| OM5KV | 2026-08-30 18:14:49 | 44.67470 | 20.88690 | 258° | 16km/h | 20081m | 7.2m/s | -56.3°C | 1.8% | 0hPa | 5.6V | 00:00:00 | 00:00:00 | 00:00:00 | |
| OM5KV | 2026-08-30 18:14:43 | 44.67467 | 20.88708 | 295° | 4km/h | 20042m | 6.9m/s | -56.2°C | 1.8% | 0hPa | 5.6V | 00:00:00 | 00:00:00 | 00:00:00 | |
| OM5KV | 2026-08-30 18:14:37 | 44.67480 | 20.88727 | 231° | 13km/h | 20008m | 6.1m/s | -56.1°C | 1.8% | 0hPa | 5.6V | 00:00:00 | 00:00:00 | 00:00:00 | |
| OM5KV | 2026-08-30 18:14:32 | 44.67484 | 20.88737 | 141° | 11km/h | 19980m | 3.6m/s | -56.2°C | 1.8% | 0hPa | 5.6V | 00:00:00 | 00:00:00 | 00:00:00 | |
| OM5KV | 2026-08-30 18:14:27 | 44.67502 | 20.88739 | 197° | 13km/h | 19949m | 4.8m/s | -56.3°C | 1.8% | 0hPa | 5.6V | 00:00:00 | 00:00:00 | 00:00:00 | |
| OM5KV | 2026-08-30 18:14:22 | 44.67514 | 20.88744 | 137° | 11km/h | 19919m | 6.0m/s | -56.3°C | 1.8% | 0hPa | 5.6V | 00:00:00 | 00:00:00 | 00:00:00 | |
| OM5KV | 2026-08-30 18:14:20 | 44.67517 | 20.88738 | 133° | 9km/h | 19907m | 6.2m/s | -56.2°C | 1.8% | 0hPa | 5.6V | 00:00:00 | 00:00:00 | 00:00:00 | |
| OM5KV | 2026-08-30 18:14:16 | 44.67525 | 20.88731 | 163° | 13km/h | 19884m | 4.5m/s | -56.3°C | 1.8% | 0hPa | 5.6V | 00:00:00 | 00:00:00 | 00:00:00 | |
| LZ4TU-5 | 2026-08-30 18:14:15 | 44.67530 | 20.88731 | 223° | 7km/h | 19872m | 6.3m/s | -56.4°C | 1.8% | 0hPa | 5.6V | 00:00:00 | 00:00:00 | 00:00:00 | |
| OM5KV | 2026-08-30 18:14:14 | 44.67530 | 20.88731 | 223° | 7km/h | 19872m | 6.3m/s | -56.4°C | 1.8% | 0hPa | 5.6V | 00:00:00 | 00:00:00 | 00:00:00 | |
| OE3JTB-15 | 2026-08-30 18:14:07 | 44.67542 | 20.88728 | 98° | 16km/h | 19831m | 6.1m/s | -55.7°C | 0% | 0hPa | 5.6V | 00:00:00 | 00:00:00 | 00:00:00 | |
| OM5KV | 2026-08-30 18:14:00 | 44.67536 | 20.88700 | 116° | 9km/h | 19789m | 5.6m/s | -56.9°C | 2.0% | 0hPa | 5.6V | 00:00:00 | 00:00:00 | 00:00:00 | |
| OM5KV | 2026-08-30 18:13:54 | 44.67534 | 20.88666 | 67° | 24km/h | 19754m | 5.8m/s | -57.2°C | 2.1% | 0hPa | 5.6V | 00:00:00 | 00:00:00 | 00:00:00 | |
| OM5KV | 2026-08-30 18:13:49 | 44.67517 | 20.88643 | 45° | 13km/h | 19724m | 5.8m/s | -57.2°C | 2.1% | 0hPa | 5.6V | 00:00:00 | 00:00:00 | 00:00:00 | |
| OM5KV | 2026-08-30 18:13:48 | 44.67515 | 20.88640 | 37° | 11km/h | 19718m | 6.6m/s | -57.2°C | 2.1% | 0hPa | 5.6V | 00:00:00 | 00:00:00 | 00:00:00 | |
| OM5KV | 2026-08-30 18:13:43 | 44.67500 | 20.88615 | 57° | 22km/h | 19688m | 6.2m/s | -57.0°C | 2.1% | 0hPa | 5.6V | 00:00:00 | 00:00:00 | 00:00:00 | |
| OM5KV | 2026-08-30 18:13:42 | 44.67496 | 20.88610 | 42° | 16km/h | 19682m | 6.2m/s | -57.0°C | 2.1% | 0hPa | 5.6V | 00:00:00 | 00:00:00 | 00:00:00 | |
| OM5KV | 2026-08-30 18:13:23 | 44.67452 | 20.88582 | 0° | 0km/h | 19572m | 7.8m/s | -56.7°C | 2.1% | 0hPa | 5.6V | 00:00:00 | 00:00:00 | 00:00:00 | |
| OM5KV | 2026-08-30 18:13:19 | 44.67453 | 20.88580 | 0° | 0km/h | 19546m | 5.9m/s | -56.7°C | 2.1% | 0hPa | 5.6V | 00:00:00 | 00:00:00 | 00:00:00 | |
| OM5KV | 2026-08-30 18:13:17 | 44.67452 | 20.88579 | 0° | 0km/h | 19535m | 4.8m/s | -56.6°C | 2.0% | 0hPa | 5.6V | 00:00:00 | 00:00:00 | 00:00:00 | |
| OM5KV | 2026-08-30 18:13:11 | 44.67447 | 20.88586 | 126° | 11km/h | 19498m | 5.8m/s | -56.5°C | 2.0% | 0hPa | 5.6V | 00:00:00 | 00:00:00 | 00:00:00 | |
| OE3JTB-15 | 2026-08-30 18:13:09 | 44.67450 | 20.88578 | 126° | 11km/h | 19485m | 6.2m/s | -55.6°C | 0% | 0hPa | 5.6V | 00:00:00 | 00:00:00 | 00:00:00 | |
| OM5KV | 2026-08-30 18:13:07 | 44.67453 | 20.88573 | 86° | 5km/h | 19475m | 5.2m/s | -56.4°C | 1.9% | 0hPa | 5.6V | 00:00:00 | 00:00:00 | 00:00:00 | |
| OM5KV | 2026-08-30 18:13:02 | 44.67439 | 20.88565 | 319° | 5km/h | 19438m | 5.9m/s | -56.3°C | 1.9% | 0hPa | 5.6V | 00:00:00 | 00:00:00 | 00:00:00 | |
| OM5KV | 2026-08-30 18:13:00 | 44.67439 | 20.88565 | 0° | 0km/h | 19432m | 6.2m/s | -56.3°C | 1.9% | 0hPa | 5.6V | 00:00:00 | 00:00:00 | 00:00:00 | |
| OM5KV | 2026-08-30 18:12:56 | 44.67447 | 20.88558 | 127° | 13km/h | 19408m | 6.2m/s | -56.5°C | 1.9% | 0hPa | 5.6V | 00:00:00 | 00:00:00 | 00:00:00 | |
| LZ4TU-5 | 2026-08-30 18:12:55 | 44.67447 | 20.88553 | 97° | 15km/h | 19401m | 6.8m/s | -56.5°C | 1.9% | 0hPa | 5.6V | 00:00:00 | 00:00:00 | 00:00:00 | |
| OM5KV | 2026-08-30 18:12:54 | 44.67447 | 20.88548 | 70° | 15km/h | 19396m | 4.5m/s | -56.5°C | 1.9% | 0hPa | 5.6V | 00:00:00 | 00:00:00 | 00:00:00 | |
| LZ4TU-5 | 2026-08-30 18:12:50 | 44.67442 | 20.88546 | 266° | 4km/h | 19371m | 6.7m/s | -56.6°C | 1.9% | 0hPa | 5.6V | 00:00:00 | 00:00:00 | 00:00:00 | |
| 9A1FER-3 | 2026-08-30 18:12:48 | 44.67445 | 20.88543 | 128° | 20km/h | 19359m | 4.8m/s | -55.9°C | 0% | 0hPa | 5.6V | 00:00:00 | 00:00:00 | 00:00:00 | |
| OM5KV | 2026-08-30 18:12:42 | 44.67457 | 20.88506 | 91° | 22km/h | 19322m | 5.9m/s | -57.1°C | 2.0% | 0hPa | 5.6V | 00:00:00 | 00:00:00 | 00:00:00 | |
| OE3JTB-15 | 2026-08-30 18:12:40 | 44.67458 | 20.88494 | 104° | 20km/h | 19311m | 6.6m/s | -56.2°C | 0% | 0hPa | 5.6V | 00:00:00 | 00:00:00 | 00:00:00 | |
| OM5KV | 2026-08-30 18:12:36 | 44.67465 | 20.88479 | 126° | 18km/h | 19287m | 6.0m/s | -57.2°C | 2.1% | 0hPa | 5.6V | 00:00:00 | 00:00:00 | 00:00:00 | |
| OM5KV | 2026-08-30 18:12:30 | 44.67473 | 20.88433 | 90° | 22km/h | 19252m | 6.3m/s | -57.1°C | 2.0% | 0hPa | 5.6V | 00:00:00 | 00:00:00 | 00:00:00 | |
| 9A1FER-3 | 2026-08-30 18:12:29 | 44.67473 | 20.88427 | 107° | 18km/h | 19245m | 6.2m/s | -56.3°C | 0% | 0hPa | 5.6V | 00:00:00 | 00:00:00 | 00:00:00 | |
| OM5KV | 2026-08-30 18:12:24 | 44.67485 | 20.88400 | 108° | 18km/h | 19216m | 6.2m/s | -57.4°C | 2.1% | 0hPa | 5.6V | 00:00:00 | 00:00:00 | 00:00:00 | |
| OM5KV | 2026-08-30 18:12:20 | 44.67484 | 20.88376 | 75° | 18km/h | 19194m | 4.5m/s | -57.5°C | 2.2% | 0hPa | 5.6V | 00:00:00 | 00:00:00 | 00:00:00 | |
| OM5KV | 2026-08-30 18:12:16 | 44.67490 | 20.88353 | 123° | 22km/h | 19170m | 6.7m/s | -57.5°C | 2.2% | 0hPa | 5.6V | 00:00:00 | 00:00:00 | 00:00:00 | |
| 9A1FER-3 | 2026-08-30 18:12:14 | 44.67492 | 20.88340 | 85° | 16km/h | 19160m | 5.8m/s | -56.6°C | 0% | 0hPa | 5.6V | 00:00:00 | 00:00:00 | 00:00:00 | |
| OM5KV | 2026-08-30 18:12:10 | 44.67477 | 20.88322 | 32° | 24km/h | 19136m | 4.3m/s | -57.5°C | 2.2% | 0hPa | 5.6V | 00:00:00 | 00:00:00 | 00:00:00 | |
| OM5KV | 2026-08-30 18:12:09 | 44.67473 | 20.88318 | 33° | 18km/h | 19130m | 6.2m/s | -57.5°C | 2.2% | 0hPa | 5.6V | 00:00:00 | 00:00:00 | 00:00:00 | |
| OM5KV | 2026-08-30 18:12:04 | 44.67473 | 20.88297 | 111° | 16km/h | 19101m | 6.0m/s | -57.4°C | 2.2% | 0hPa | 5.6V | 00:00:00 | 00:00:00 | 00:00:00 | |
| OM5KV | 2026-08-30 18:12:02 | 44.67472 | 20.88289 | 32° | 15km/h | 19089m | 5.3m/s | -57.4°C | 2.2% | 0hPa | 5.6V | 00:00:00 | 00:00:00 | 00:00:00 | |
| 9A1FER-3 | 2026-08-30 18:11:59 | 44.67459 | 20.88279 | 41° | 11km/h | 19071m | 5.0m/s | -56.4°C | 0% | 0hPa | 5.6V | 00:00:00 | 00:00:00 | 00:00:00 | |
| OM5KV | 2026-08-30 18:11:57 | 44.67454 | 20.88270 | 58° | 11km/h | 19060m | 6.3m/s | -57.3°C | 2.1% | 0hPa | 5.6V | 00:00:00 | 00:00:00 | 00:00:00 | |
| OM5KV | 2026-08-30 18:11:52 | 44.67456 | 20.88249 | 99° | 15km/h | 19033m | 6.1m/s | -57.3°C | 2.1% | 0hPa | 5.6V | 00:00:00 | 00:00:00 | 00:00:00 | |
| OM5KV | 2026-08-30 18:11:51 | 44.67456 | 20.88245 | 77° | 9km/h | 19027m | 5.6m/s | -57.2°C | 2.1% | 0hPa | 5.6V | 00:00:00 | 00:00:00 | 00:00:00 | |
| OM5KV | 2026-08-30 18:11:47 | 44.67450 | 20.88235 | 48° | 11km/h | 19004m | 5.0m/s | -57.2°C | 2.1% | 0hPa | 5.6V | 00:00:00 | 00:00:00 | 00:00:00 | |
| OM5KV | 2026-08-30 18:11:45 | 44.67447 | 20.88231 | 38° | 9km/h | 18993m | 5.3m/s | -57.2°C | 2.1% | 0hPa | 5.6V | 00:00:00 | 00:00:00 | 00:00:00 | |
| 9A1FER-3 | 2026-08-30 18:11:44 | 44.67445 | 20.88229 | 68° | 9km/h | 18987m | 5.9m/s | -56.4°C | 0% | 0hPa | 5.6V | 00:00:00 | 00:00:00 | 00:00:00 | |
| OM5KV | 2026-08-30 18:11:41 | 44.67450 | 20.88218 | 149° | 15km/h | 18969m | 6.7m/s | -57.3°C | 2.1% | 0hPa | 0V | 00:00:00 | 00:00:00 | 00:00:00 | |
| OM5KV | 2026-08-30 18:11:40 | 44.67453 | 20.88216 | 165° | 13km/h | 18963m | 4.8m/s | -57.3°C | 2.1% | 0hPa | 0V | 00:00:00 | 00:00:00 | 00:00:00 | |
| OM5KV | 2026-08-30 18:11:35 | 44.67458 | 20.88207 | 23° | 4km/h | 18937m | 5.6m/s | -57.5°C | 2.2% | 0hPa | 0V | 00:00:00 | 00:00:00 | 00:00:00 | |
| OM5KV | 2026-08-30 18:11:30 | 44.67457 | 20.88191 | 90° | 13km/h | 18907m | 6.5m/s | -57.6°C | 2.2% | 0hPa | 0V | 00:00:00 | 00:00:00 | 00:00:00 | |
| OM5KV | 2026-08-30 18:11:24 | 44.67452 | 20.88169 | 83° | 5km/h | 18873m | 4.3m/s | -57.9°C | 2.3% | 0hPa | 0V | 00:00:00 | 00:00:00 | 00:00:00 | |
| OM5KV | 2026-08-30 18:11:19 | 44.67456 | 20.88140 | 82° | 20km/h | 18843m | 4.4m/s | -58.0°C | 2.4% | 0hPa | 0V | 00:00:00 | 00:00:00 | 00:00:00 | |
| OM5KV | 2026-08-30 18:11:17 | 44.67455 | 20.88125 | 80° | 22km/h | 18831m | 5.6m/s | -58.0°C | 2.4% | 0hPa | 0V | 00:00:00 | 00:00:00 | 00:00:00 | |
| OM5KV | 2026-08-30 18:11:13 | 44.67447 | 20.88106 | 60° | 13km/h | 18808m | 5.8m/s | -58.0°C | 2.5% | 0hPa | 0V | 00:00:00 | 00:00:00 | 00:00:00 | |
| OM5KV | 2026-08-30 18:11:12 | 44.67446 | 20.88101 | 72° | 18km/h | 18801m | 7.0m/s | -58.0°C | 2.5% | 0hPa | 0V | 00:00:00 | 00:00:00 | 00:00:00 | |
| OM5KV | 2026-08-30 18:11:08 | 44.67438 | 20.88069 | 58° | 20km/h | 18779m | 5.2m/s | -58.0°C | 2.5% | 0hPa | 0V | 00:00:00 | 00:00:00 | 00:00:00 | |
| OM5KV | 2026-08-30 18:10:57 | 44.67393 | 20.88018 | 30° | 27km/h | 18718m | 4.5m/s | -57.9°C | 2.6% | 0hPa | 0V | 00:00:00 | 00:00:00 | 00:00:00 | |
| OM5KV | 2026-08-30 18:10:51 | 44.67368 | 20.87981 | 24° | 20km/h | 18685m | 5.7m/s | -57.8°C | 2.6% | 0hPa | 0V | 00:00:00 | 00:00:00 | 00:00:00 | |
| OM5KV | 2026-08-30 18:10:44 | 44.67323 | 20.87960 | 33° | 26km/h | 18646m | 5.8m/s | -57.5°C | 2.6% | 0hPa | 0V | 00:00:00 | 00:00:00 | 00:00:00 | |
| OM5KV | 2026-08-30 18:10:38 | 44.67304 | 20.87945 | 19° | 11km/h | 18611m | 6.2m/s | -57.3°C | 2.6% | 0hPa | 0V | 00:00:00 | 00:00:00 | 00:00:00 | |
| OM5KV | 2026-08-30 18:10:35 | 44.67293 | 20.87941 | 16° | 18km/h | 18594m | 4.9m/s | -57.1°C | 2.5% | 0hPa | 0V | 00:00:00 | 00:00:00 | 00:00:00 | |
| OM5KV | 2026-08-30 18:10:33 | 44.67284 | 20.87936 | 27° | 26km/h | 18582m | 5.9m/s | -57.1°C | 2.5% | 0hPa | 0V | 00:00:00 | 00:00:00 | 00:00:00 | |
| OM5KV | 2026-08-30 18:10:27 | 44.67260 | 20.87932 | 328° | 9km/h | 18549m | 5.7m/s | -56.8°C | 2.4% | 0hPa | 0V | 00:00:00 | 00:00:00 | 00:00:00 | |
| OM5KV | 2026-08-30 18:10:23 | 44.67247 | 20.87932 | 29° | 24km/h | 18524m | 7.3m/s | -56.7°C | 2.4% | 0hPa | 0V | 00:00:00 | 00:00:00 | 00:00:00 | |
| OM5KV | 2026-08-30 18:10:20 | 44.67229 | 20.87915 | 33° | 24km/h | 18512m | 4.3m/s | -56.6°C | 2.3% | 0hPa | 0V | 00:00:00 | 00:00:00 | 00:00:00 | |
| OM5KV | 2026-08-30 18:10:18 | 44.67222 | 20.87915 | 300° | 16km/h | 18497m | 7.3m/s | -56.6°C | 2.3% | 0hPa | 0V | 00:00:00 | 00:00:00 | 00:00:00 | |
| LZ4TU-5 | 2026-08-30 18:10:16 | 44.67219 | 20.87930 | 277° | 22km/h | 18482m | 4.7m/s | -56.7°C | 2.4% | 0hPa | 0V | 00:00:00 | 00:00:00 | 00:00:00 | |
| OM5KV | 2026-08-30 18:10:14 | 44.67220 | 20.87941 | 252° | 9km/h | 18475m | 3.3m/s | -56.7°C | 2.4% | 0hPa | 0V | 00:00:00 | 00:00:00 | 00:00:00 | |
| LZ4TU-5 | 2026-08-30 18:10:11 | 44.67219 | 20.87938 | 72° | 15km/h | 18455m | 5.9m/s | -56.8°C | 2.4% | 0hPa | 0V | 00:00:00 | 00:00:00 | 00:00:00 | |
| OM5KV | 2026-08-30 18:10:09 | 44.67217 | 20.87930 | 49° | 11km/h | 18444m | 4.6m/s | -56.8°C | 2.4% | 0hPa | 0V | 00:00:00 | 00:00:00 | 00:00:00 | |
| OM5KV | 2026-08-30 18:10:06 | 44.67209 | 20.87921 | 53° | 11km/h | 18426m | 5.5m/s | -56.9°C | 72.7% | 0hPa | 0V | 00:00:00 | 00:00:00 | 00:00:00 | |
| OM5KV | 2026-08-30 18:10:01 | 44.67208 | 20.87904 | 84° | 20km/h | 18397m | 4.3m/s | -57.0°C | 2.3% | 0hPa | 0V | 00:00:00 | 00:00:00 | 00:00:00 | |
| OM5KV | 2026-08-30 18:09:58 | 44.67205 | 20.87885 | 82° | 11km/h | 18381m | 5.3m/s | -57.1°C | 2.3% | 0hPa | 0V | 00:00:00 | 00:00:00 | 00:00:00 | |
| OM5KV | 2026-08-30 18:09:50 | 44.67205 | 20.87847 | 68° | 24km/h | 18338m | 6.2m/s | -57.8°C | 2.5% | 0hPa | 0V | 00:00:00 | 00:00:00 | 00:00:00 | |
| OM5KV | 2026-08-30 18:09:45 | 44.67188 | 20.87814 | 60° | 20km/h | 18309m | 5.9m/s | -57.8°C | 2.5% | 0hPa | 0V | 00:00:00 | 00:00:00 | 00:00:00 | |
| OM5KV | 2026-08-30 18:09:37 | 44.67178 | 20.87756 | 58° | 16km/h | 18266m | 5.7m/s | -57.9°C | 2.5% | 0hPa | 0V | 00:00:00 | 00:00:00 | 00:00:00 | |
| OM5KV | 2026-08-30 18:09:34 | 44.67168 | 20.87743 | 41° | 15km/h | 18250m | 3.9m/s | -58.0°C | 2.5% | 0hPa | 0V | 00:00:00 | 00:00:00 | 00:00:00 | |
| OM5KV | 2026-08-30 18:09:29 | 44.67169 | 20.87726 | 97° | 18km/h | 18222m | 5.3m/s | -58.3°C | 2.6% | 0hPa | 0V | 00:00:00 | 00:00:00 | 00:00:00 | |
| OM5KV | 2026-08-30 18:09:23 | 44.67163 | 20.87701 | 108° | 5km/h | 18188m | 5.3m/s | -58.2°C | 2.6% | 0hPa | 0V | 00:00:00 | 00:00:00 | 00:00:00 | |
| OM5KV | 2026-08-30 18:09:17 | 44.67166 | 20.87698 | 26° | 16km/h | 18155m | 6.9m/s | -58.2°C | 2.6% | 0hPa | 0V | 00:00:00 | 00:00:00 | 00:00:00 | |
| OM5KV | 2026-08-30 18:09:11 | 44.67149 | 20.87676 | 2° | 5km/h | 18121m | 5.9m/s | -58.3°C | 2.7% | 0hPa | 0V | 00:00:00 | 00:00:00 | 00:00:00 | |
| OM5KV | 2026-08-30 18:09:05 | 44.67142 | 20.87685 | 0° | 0km/h | 18082m | 7.4m/s | -58.5°C | 2.8% | 0hPa | 0V | 00:00:00 | 00:00:00 | 00:00:00 | |
| OM5KV | 2026-08-30 18:08:57 | 44.67152 | 20.87683 | 216° | 11km/h | 18038m | 5.9m/s | -58.4°C | 2.8% | 0hPa | 0V | 00:00:00 | 00:00:00 | 00:00:00 | |
| LZ4TU-5 | 2026-08-30 18:08:56 | 44.67154 | 20.87685 | 202° | 7km/h | 18031m | 7.2m/s | -58.3°C | 2.8% | 0hPa | 0V | 00:00:00 | 00:00:00 | 00:00:00 | |
| OM5KV | 2026-08-30 18:08:52 | 44.67160 | 20.87681 | 160° | 9km/h | 18010m | 4.2m/s | -58.3°C | 2.9% | 0hPa | 0V | 00:00:00 | 00:00:00 | 00:00:00 | |
| LZ4TU-5 | 2026-08-30 18:08:51 | 44.67162 | 20.87680 | 143° | 9km/h | 18005m | 5.9m/s | -58.3°C | 2.9% | 0hPa | 0V | 00:00:00 | 00:00:00 | 00:00:00 | |
| OM5KV | 2026-08-30 18:08:46 | 44.67171 | 20.87668 | 136° | 16km/h | 17974m | 7.1m/s | -58.2°C | 2.9% | 0hPa | 0V | 00:00:00 | 00:00:00 | 00:00:00 | |
| OM5KV | 2026-08-30 18:08:41 | 44.67189 | 20.87649 | 188° | 13km/h | 17946m | 4.6m/s | -58.1°C | 2.9% | 0hPa | 0V | 00:00:00 | 00:00:00 | 00:00:00 | |
| OM5KV | 2026-08-30 18:08:35 | 44.67205 | 20.87645 | 146° | 18km/h | 17914m | 4.0m/s | -58.1°C | 3.0% | 0hPa | 0V | 00:00:00 | 00:00:00 | 00:00:00 | |
| OM5KV | 2026-08-30 18:08:29 | 44.67217 | 20.87616 | 166° | 7km/h | 17881m | 4.2m/s | -58.0°C | 3.0% | 0hPa | 0V | 00:00:00 | 00:00:00 | 00:00:00 | |
| OM5KV | 2026-08-30 18:08:22 | 44.67238 | 20.87591 | 113° | 24km/h | 17839m | 5.2m/s | -58.0°C | 3.0% | 0hPa | 0V | 00:00:00 | 00:00:00 | 00:00:00 | |
| OM5KV | 2026-08-30 18:08:09 | 44.67276 | 20.87518 | 86° | 16km/h | 17766m | 6.1m/s | -57.7°C | 3.0% | 0hPa | 0V | 00:00:00 | 00:00:00 | 00:00:00 | |
| OM5KV | 2026-08-30 18:08:02 | 44.67305 | 20.87477 | 149° | 35km/h | 17727m | 4.6m/s | -57.5°C | 3.1% | 0hPa | 0V | 00:00:00 | 00:00:00 | 00:00:00 | |
| OM5KV | 2026-08-30 18:07:55 | 44.67327 | 20.87435 | 109° | 22km/h | 17681m | 6.9m/s | -57.5°C | 3.1% | 0hPa | 0V | 00:00:00 | 00:00:00 | 00:00:00 | |
| LZ4TU-5 | 2026-08-30 18:07:37 | 44.67415 | 20.87262 | 117° | 40km/h | 17577m | 5.0m/s | -57.4°C | 3.2% | 0hPa | 0V | 00:00:00 | 00:00:00 | 00:00:00 | |
| LZ4TU-5 | 2026-08-30 18:07:33 | 44.67434 | 20.87221 | 128° | 33km/h | 17554m | 6.2m/s | -57.4°C | 3.2% | 0hPa | 0V | 00:00:00 | 00:00:00 | 00:00:00 | |
| LZ4TU-5 | 2026-08-30 18:06:13 | 44.67570 | 20.86369 | 65° | 26km/h | 17108m | 4.6m/s | -57.5°C | 3.4% | 0hPa | 0V | 00:00:00 | 00:00:00 | 00:00:00 | |
| LZ4TU-5 | 2026-08-30 18:06:08 | 44.67578 | 20.86300 | 101° | 53km/h | 17081m | 3.5m/s | -57.9°C | 3.5% | 0hPa | 0V | 00:00:00 | 00:00:00 | 00:00:00 | |
| LZ4TU-5 | 2026-08-30 18:04:52 | 44.67313 | 20.85662 | 77° | 24km/h | 16666m | 4.4m/s | -57.6°C | 4.8% | 0hPa | 0V | 00:00:00 | 00:00:00 | 00:00:00 | |
| LZ4TU-5 | 2026-08-30 18:04:47 | 44.67296 | 20.85630 | 34° | 18km/h | 16639m | 6.0m/s | -57.4°C | 4.8% | 0hPa | 0V | 00:00:00 | 00:00:00 | 00:00:00 | |
| LZ4TU-5 | 2026-08-30 18:03:33 | 44.67313 | 20.85123 | 139° | 27km/h | 16215m | 5.8m/s | -57.2°C | 5.3% | 0hPa | 0V | 00:00:00 | 00:00:00 | 00:00:00 | |
| LZ4TU-5 | 2026-08-30 18:03:28 | 44.67336 | 20.85089 | 134° | 24km/h | 16189m | 5.8m/s | -58.2°C | 5.6% | 0hPa | 0V | 00:00:00 | 00:00:00 | 00:00:00 | |
| LZ4TU-5 | 2026-08-30 18:02:15 | 44.67697 | 20.84153 | 108° | 46km/h | 15802m | 6.1m/s | -60.5°C | 6.9% | 0hPa | 0V | 00:00:00 | 00:00:00 | 00:00:00 | |
| LZ4TU-5 | 2026-08-30 18:02:10 | 44.67711 | 20.84073 | 103° | 49km/h | 15775m | 5.8m/s | -60.5°C | 7.1% | 0hPa | 0V | 00:00:00 | 00:00:00 | 00:00:00 | |
| LZ4TU-5 | 2026-08-30 18:00:52 | 44.67740 | 20.82641 | 84° | 66km/h | 15348m | 5.0m/s | -59.2°C | 9.2% | 0hPa | 0V | 00:00:00 | 00:00:00 | 00:00:00 | |
| LZ4TU-5 | 2026-08-30 18:00:47 | 44.67735 | 20.82551 | 79° | 44km/h | 15321m | 5.6m/s | -59.1°C | 9.4% | 0hPa | 0V | 00:00:00 | 00:00:00 | 00:00:00 | |
| LZ4TU-5 | 2026-08-30 17:59:27 | 44.67653 | 20.81091 | 94° | 62km/h | 14908m | 5.6m/s | -59.7°C | 13.4% | 0hPa | 0V | 00:00:00 | 00:00:00 | 00:00:00 | |
| LZ4TU-5 | 2026-08-30 17:59:23 | 44.67646 | 20.81028 | 74° | 38km/h | 14882m | 5.6m/s | -59.9°C | 13.6% | 0hPa | 0V | 00:00:00 | 00:00:00 | 00:00:00 | |
| LZ4TU-5 | 2026-08-30 17:58:03 | 44.68190 | 20.79799 | 114° | 62km/h | 14378m | 7.2m/s | -60.4°C | 15.0% | 0hPa | 0V | 00:00:00 | 00:00:00 | 00:00:00 | |
| LZ4TU-5 | 2026-08-30 17:57:58 | 44.68220 | 20.79704 | 116° | 64km/h | 14348m | 6.2m/s | -60.5°C | 15.3% | 0hPa | 0V | 00:00:00 | 00:00:00 | 00:00:00 | |
| LZ4TU-5 | 2026-08-30 17:56:33 | 44.68532 | 20.78162 | 91° | 46km/h | 13841m | 7.6m/s | -59.4°C | 18.3% | 0hPa | 0V | 00:00:00 | 00:00:00 | 00:00:00 | |
| LZ4TU-5 | 2026-08-30 17:56:28 | 44.68542 | 20.78089 | 102° | 38km/h | 13804m | 4.7m/s | -59.4°C | 18.4% | 0hPa | 0V | 00:00:00 | 00:00:00 | 00:00:00 | |
| LZ4TU-5 | 2026-08-30 17:55:00 | 44.68735 | 20.76872 | 126° | 57km/h | 13274m | 7.0m/s | -58.0°C | 21.5% | 0hPa | 0V | 00:00:00 | 00:00:00 | 00:00:00 | |
| LZ4TU-5 | 2026-08-30 17:54:56 | 44.68763 | 20.76806 | 121° | 47km/h | 13247m | 6.4m/s | -58.0°C | 21.8% | 0hPa | 0V | 00:00:00 | 00:00:00 | 00:00:00 | |
| LZ4TU-5 | 2026-08-30 17:53:37 | 44.69359 | 20.75112 | 109° | 66km/h | 12814m | 4.8m/s | -57.6°C | 26.3% | 0hPa | 0V | 00:00:00 | 00:00:00 | 00:00:00 | |
| LZ4TU-5 | 2026-08-30 17:53:32 | 44.69376 | 20.74990 | 106° | 77km/h | 12790m | 3.5m/s | -57.5°C | 26.3% | 0hPa | 0V | 00:00:00 | 00:00:00 | 00:00:00 | |
| LZ4TU-5 | 2026-08-30 17:52:10 | 44.69775 | 20.72975 | 104° | 77km/h | 12365m | 6.2m/s | -55.6°C | 29.9% | 0hPa | 0V | 00:00:00 | 00:00:00 | 00:00:00 | |
| LZ4TU-5 | 2026-08-30 17:52:05 | 44.69799 | 20.72830 | 104° | 86km/h | 12338m | 5.1m/s | -55.5°C | 0% | 0hPa | 0V | 00:00:00 | 00:00:00 | 00:00:00 | |
| LZ4TU-5 | 2026-08-30 17:50:46 | 44.70034 | 20.70812 | 110° | 69km/h | 11910m | 7.9m/s | -53.0°C | 29.3% | 0hPa | 0V | 00:00:00 | 00:00:00 | 00:00:00 | |
| LZ4TU-5 | 2026-08-30 17:50:41 | 44.70066 | 20.70702 | 106° | 68km/h | 11879m | 7.7m/s | -52.8°C | 29.0% | 0hPa | 0V | 00:00:00 | 00:00:00 | 00:00:00 | |
| LZ4TU-5 | 2026-08-30 17:49:23 | 44.70557 | 20.68749 | 100° | 78km/h | 11438m | 7.7m/s | -51.7°C | 31.6% | 0hPa | 0V | 00:00:00 | 00:00:00 | 00:00:00 | |
| LZ4TU-5 | 2026-08-30 17:49:18 | 44.70579 | 20.68632 | 121° | 75km/h | 11408m | 4.6m/s | -51.6°C | 31.5% | 0hPa | 0V | 00:00:00 | 00:00:00 | 00:00:00 | |
| LZ4TU-5 | 2026-08-30 17:48:01 | 44.70919 | 20.66598 | 93° | 80km/h | 10992m | 7.2m/s | -48.5°C | 27.0% | 0hPa | 0V | 00:00:00 | 00:00:00 | 00:00:00 | |
| LZ4TU-5 | 2026-08-30 17:47:56 | 44.70942 | 20.66481 | 113° | 75km/h | 10963m | 7.8m/s | -48.2°C | 27.0% | 0hPa | 0V | 00:00:00 | 00:00:00 | 00:00:00 | |
| LZ4TU-5 | 2026-08-30 17:46:37 | 44.71218 | 20.64315 | 104° | 73km/h | 10553m | 5.4m/s | -44.7°C | 23.3% | 0hPa | 0V | 00:00:00 | 00:00:00 | 00:00:00 | |
| LZ4TU-5 | 2026-08-30 17:46:33 | 44.71234 | 20.64216 | 107° | 75km/h | 10529m | 8.1m/s | -44.6°C | 23.3% | 0hPa | 0V | 00:00:00 | 00:00:00 | 00:00:00 | |
| LZ4TU-5 | 2026-08-30 17:45:13 | 44.71583 | 20.62071 | 96° | 62km/h | 10099m | 3.8m/s | -41.3°C | 23.7% | 0hPa | 0V | 00:00:00 | 00:00:00 | 00:00:00 | |
| LZ4TU-5 | 2026-08-30 17:45:08 | 44.71608 | 20.61942 | 113° | 80km/h | 10074m | 3.9m/s | -41.0°C | 23.4% | 0hPa | 0V | 00:00:00 | 00:00:00 | 00:00:00 | |
| LZ4TU-5 | 2026-08-30 17:43:49 | 44.72140 | 20.59964 | 109° | 62km/h | 9639m | 6.4m/s | -37.8°C | 16.4% | 0hPa | 0V | 00:00:00 | 00:00:00 | 00:00:00 | |
| LZ4TU-5 | 2026-08-30 17:43:45 | 44.72164 | 20.59873 | 110° | 75km/h | 9616m | 6.8m/s | -37.6°C | 16.5% | 0hPa | 0V | 00:00:00 | 00:00:00 | 00:00:00 | |
| LZ4TU-5 | 2026-08-30 17:42:25 | 44.72623 | 20.57891 | 104° | 66km/h | 9190m | 6.4m/s | -34.2°C | 15.1% | 0hPa | 0V | 00:00:00 | 00:00:00 | 00:00:00 | |
| LZ4TU-5 | 2026-08-30 17:42:20 | 44.72645 | 20.57769 | 114° | 73km/h | 9161m | 6.6m/s | -34.0°C | 14.8% | 0hPa | 0V | 00:00:00 | 00:00:00 | 00:00:00 | |
| LZ4TU-5 | 2026-08-30 17:40:55 | 44.73087 | 20.55801 | 117° | 68km/h | 8679m | 7.1m/s | -30.3°C | 21.7% | 0hPa | 0V | 00:00:00 | 00:00:00 | 00:00:00 | |
| LZ4TU-5 | 2026-08-30 17:39:28 | 44.73521 | 20.53893 | 114° | 66km/h | 8180m | 8.2m/s | -26.6°C | 13.7% | 0hPa | 0V | 00:00:00 | 00:00:00 | 00:00:00 | |
| LZ4TU-5 | 2026-08-30 17:39:24 | 44.73544 | 20.53786 | 109° | 78km/h | 8156m | 4.2m/s | -26.4°C | 13.6% | 0hPa | 0V | 00:00:00 | 00:00:00 | 00:00:00 | |
| LZ4TU-5 | 2026-08-30 17:38:12 | 44.73999 | 20.52492 | 128° | 40km/h | 7743m | 6.1m/s | -23.4°C | 9.8% | 0hPa | 0V | 00:00:00 | 00:00:00 | 00:00:00 | |
| LZ4TU-5 | 2026-08-30 17:38:07 | 44.74023 | 20.52428 | 114° | 47km/h | 7711m | 7.2m/s | -23.1°C | 9.9% | 0hPa | 0V | 00:00:00 | 00:00:00 | 00:00:00 | |
| LZ4TU-5 | 2026-08-30 17:36:55 | 44.74354 | 20.51319 | 112° | 51km/h | 7296m | 5.2m/s | -20.0°C | 9.2% | 0hPa | 0V | 00:00:00 | 00:00:00 | 00:00:00 | |
| LZ4TU-5 | 2026-08-30 17:36:50 | 44.74374 | 20.51260 | 113° | 40km/h | 7261m | 7.0m/s | -19.7°C | 9.2% | 0hPa | 0V | 00:00:00 | 00:00:00 | 00:00:00 | |
| LZ4TU-5 | 2026-08-30 17:35:37 | 44.74678 | 20.50290 | 119° | 53km/h | 6839m | 4.0m/s | -16.4°C | 10.1% | 0hPa | 0V | 00:00:00 | 00:00:00 | 00:00:00 | |
| LZ4TU-5 | 2026-08-30 17:35:32 | 44.74719 | 20.50237 | 124° | 35km/h | 6806m | 6.4m/s | -16.2°C | 10.2% | 0hPa | 0V | 00:00:00 | 00:00:00 | 00:00:00 | |
| LZ4TU-5 | 2026-08-30 17:34:17 | 44.74971 | 20.49290 | 74° | 42km/h | 6397m | 7.2m/s | -13.5°C | 31.8% | 0hPa | 0V | 00:00:00 | 00:00:00 | 00:00:00 | |
| LZ4TU-5 | 2026-08-30 17:34:12 | 44.74973 | 20.49245 | 108° | 20km/h | 6369m | 4.8m/s | -13.4°C | 29.7% | 0hPa | 0V | 00:00:00 | 00:00:00 | 00:00:00 |